<?xml version="1.0" encoding="UTF-8" standalone="no" ?>
<gpx xmlns="http://www.topografix.com/GPX/1/1" xmlns:xsi="http://www.w3.org/2001/XMLSchema-instance" xsi:schemaLocation="http://www.topografix.com/GPX/1/1 http://www.topografix.com/GPX/1/1/gpx.xsd" version="1.1" creator="VisuGPX - https://www.visugpx.com">
  <metadata>
    <name>1ère Rando Calanques le 14 mars 2013 oeil de verre</name>
    <desc><![CDATA[1ère Rando Calanques le 14 mars 2013 oeil de verre]]></desc>
  </metadata>
  <trk>
    <name><![CDATA[14 mars 2013 14:14:08]]></name>
    <cmt><![CDATA[14 mars 2013 14:14:08]]></cmt>
    <trkseg>
      <trkpt lat="43.22757" lon="5.43723">
        <ele>154</ele>
        <time>2013-03-14T13:14:09Z</time>
      </trkpt>
      <trkpt lat="43.22755" lon="5.43723">
        <ele>154</ele>
        <time>2013-03-14T13:14:11Z</time>
      </trkpt>
      <trkpt lat="43.2275" lon="5.4372">
        <ele>154</ele>
        <time>2013-03-14T13:14:15Z</time>
      </trkpt>
      <trkpt lat="43.22746" lon="5.43717">
        <ele>154</ele>
        <time>2013-03-14T13:14:18Z</time>
      </trkpt>
      <trkpt lat="43.22744" lon="5.43723">
        <ele>153</ele>
        <time>2013-03-14T13:14:22Z</time>
      </trkpt>
      <trkpt lat="43.2274" lon="5.43726">
        <ele>153</ele>
        <time>2013-03-14T13:14:27Z</time>
      </trkpt>
      <trkpt lat="43.22735" lon="5.43729">
        <ele>153</ele>
        <time>2013-03-14T13:14:32Z</time>
      </trkpt>
      <trkpt lat="43.22731" lon="5.43731">
        <ele>153</ele>
        <time>2013-03-14T13:14:36Z</time>
      </trkpt>
      <trkpt lat="43.22726" lon="5.43732">
        <ele>154</ele>
        <time>2013-03-14T13:14:40Z</time>
      </trkpt>
      <trkpt lat="43.2272" lon="5.43734">
        <ele>154</ele>
        <time>2013-03-14T13:14:44Z</time>
      </trkpt>
      <trkpt lat="43.22714" lon="5.43736">
        <ele>155</ele>
        <time>2013-03-14T13:14:47Z</time>
      </trkpt>
      <trkpt lat="43.2271" lon="5.43739">
        <ele>156</ele>
        <time>2013-03-14T13:14:50Z</time>
      </trkpt>
      <trkpt lat="43.22705" lon="5.43743">
        <ele>157</ele>
        <time>2013-03-14T13:14:54Z</time>
      </trkpt>
      <trkpt lat="43.22701" lon="5.43746">
        <ele>158</ele>
        <time>2013-03-14T13:14:58Z</time>
      </trkpt>
      <trkpt lat="43.22696" lon="5.43751">
        <ele>159</ele>
        <time>2013-03-14T13:15:02Z</time>
      </trkpt>
      <trkpt lat="43.22692" lon="5.43754">
        <ele>158</ele>
        <time>2013-03-14T13:15:06Z</time>
      </trkpt>
      <trkpt lat="43.22687" lon="5.43757">
        <ele>159</ele>
        <time>2013-03-14T13:15:10Z</time>
      </trkpt>
      <trkpt lat="43.22682" lon="5.43759">
        <ele>159</ele>
        <time>2013-03-14T13:15:13Z</time>
      </trkpt>
      <trkpt lat="43.22677" lon="5.43761">
        <ele>159</ele>
        <time>2013-03-14T13:15:17Z</time>
      </trkpt>
      <trkpt lat="43.22673" lon="5.43766">
        <ele>159</ele>
        <time>2013-03-14T13:15:21Z</time>
      </trkpt>
      <trkpt lat="43.22669" lon="5.43769">
        <ele>160</ele>
        <time>2013-03-14T13:15:25Z</time>
      </trkpt>
      <trkpt lat="43.22664" lon="5.43773">
        <ele>160</ele>
        <time>2013-03-14T13:15:29Z</time>
      </trkpt>
      <trkpt lat="43.22661" lon="5.43778">
        <ele>160</ele>
        <time>2013-03-14T13:15:33Z</time>
      </trkpt>
      <trkpt lat="43.22657" lon="5.43782">
        <ele>161</ele>
        <time>2013-03-14T13:15:37Z</time>
      </trkpt>
      <trkpt lat="43.22651" lon="5.43784">
        <ele>162</ele>
        <time>2013-03-14T13:15:41Z</time>
      </trkpt>
      <trkpt lat="43.22647" lon="5.43787">
        <ele>162</ele>
        <time>2013-03-14T13:15:45Z</time>
      </trkpt>
      <trkpt lat="43.22642" lon="5.4379">
        <ele>162</ele>
        <time>2013-03-14T13:15:50Z</time>
      </trkpt>
      <trkpt lat="43.22637" lon="5.43791">
        <ele>161</ele>
        <time>2013-03-14T13:15:54Z</time>
      </trkpt>
      <trkpt lat="43.22633" lon="5.43794">
        <ele>161</ele>
        <time>2013-03-14T13:15:58Z</time>
      </trkpt>
      <trkpt lat="43.22628" lon="5.43796">
        <ele>160</ele>
        <time>2013-03-14T13:16:02Z</time>
      </trkpt>
      <trkpt lat="43.22623" lon="5.438">
        <ele>159</ele>
        <time>2013-03-14T13:16:06Z</time>
      </trkpt>
      <trkpt lat="43.22618" lon="5.43802">
        <ele>159</ele>
        <time>2013-03-14T13:16:10Z</time>
      </trkpt>
      <trkpt lat="43.22612" lon="5.43803">
        <ele>158</ele>
        <time>2013-03-14T13:16:14Z</time>
      </trkpt>
      <trkpt lat="43.22607" lon="5.43805">
        <ele>158</ele>
        <time>2013-03-14T13:16:18Z</time>
      </trkpt>
      <trkpt lat="43.22602" lon="5.43807">
        <ele>157</ele>
        <time>2013-03-14T13:16:22Z</time>
      </trkpt>
      <trkpt lat="43.22597" lon="5.43808">
        <ele>157</ele>
        <time>2013-03-14T13:16:26Z</time>
      </trkpt>
      <trkpt lat="43.22592" lon="5.43809">
        <ele>157</ele>
        <time>2013-03-14T13:16:30Z</time>
      </trkpt>
      <trkpt lat="43.22587" lon="5.4381">
        <ele>157</ele>
        <time>2013-03-14T13:16:34Z</time>
      </trkpt>
      <trkpt lat="43.22581" lon="5.4381">
        <ele>157</ele>
        <time>2013-03-14T13:16:38Z</time>
      </trkpt>
      <trkpt lat="43.22577" lon="5.4381">
        <ele>157</ele>
        <time>2013-03-14T13:16:41Z</time>
      </trkpt>
      <trkpt lat="43.22572" lon="5.43812">
        <ele>156</ele>
        <time>2013-03-14T13:16:45Z</time>
      </trkpt>
      <trkpt lat="43.22566" lon="5.43811">
        <ele>155</ele>
        <time>2013-03-14T13:16:49Z</time>
      </trkpt>
      <trkpt lat="43.22557" lon="5.4381">
        <ele>155</ele>
        <time>2013-03-14T13:16:56Z</time>
      </trkpt>
      <trkpt lat="43.22547" lon="5.43808">
        <ele>154</ele>
        <time>2013-03-14T13:17:03Z</time>
      </trkpt>
      <trkpt lat="43.22537" lon="5.4381">
        <ele>154</ele>
        <time>2013-03-14T13:17:10Z</time>
      </trkpt>
      <trkpt lat="43.22528" lon="5.43811">
        <ele>152</ele>
        <time>2013-03-14T13:17:17Z</time>
      </trkpt>
      <trkpt lat="43.22519" lon="5.43813">
        <ele>152</ele>
        <time>2013-03-14T13:17:24Z</time>
      </trkpt>
      <trkpt lat="43.22509" lon="5.43812">
        <ele>152</ele>
        <time>2013-03-14T13:17:31Z</time>
      </trkpt>
      <trkpt lat="43.22499" lon="5.43811">
        <ele>151</ele>
        <time>2013-03-14T13:17:39Z</time>
      </trkpt>
      <trkpt lat="43.22489" lon="5.43811">
        <ele>151</ele>
        <time>2013-03-14T13:17:47Z</time>
      </trkpt>
      <trkpt lat="43.22479" lon="5.4381">
        <ele>150</ele>
        <time>2013-03-14T13:17:55Z</time>
      </trkpt>
      <trkpt lat="43.2247" lon="5.4381">
        <ele>151</ele>
        <time>2013-03-14T13:18:03Z</time>
      </trkpt>
      <trkpt lat="43.22461" lon="5.43811">
        <ele>152</ele>
        <time>2013-03-14T13:18:10Z</time>
      </trkpt>
      <trkpt lat="43.22453" lon="5.43818">
        <ele>151</ele>
        <time>2013-03-14T13:18:17Z</time>
      </trkpt>
      <trkpt lat="43.22446" lon="5.43826">
        <ele>151</ele>
        <time>2013-03-14T13:18:23Z</time>
      </trkpt>
      <trkpt lat="43.22437" lon="5.43834">
        <ele>151</ele>
        <time>2013-03-14T13:18:30Z</time>
      </trkpt>
      <trkpt lat="43.22429" lon="5.43841">
        <ele>150</ele>
        <time>2013-03-14T13:18:37Z</time>
      </trkpt>
      <trkpt lat="43.22424" lon="5.43843">
        <ele>150</ele>
        <time>2013-03-14T13:18:41Z</time>
      </trkpt>
      <trkpt lat="43.22419" lon="5.43846">
        <ele>150</ele>
        <time>2013-03-14T13:18:45Z</time>
      </trkpt>
      <trkpt lat="43.22415" lon="5.4385">
        <ele>149</ele>
        <time>2013-03-14T13:18:49Z</time>
      </trkpt>
      <trkpt lat="43.22411" lon="5.43854">
        <ele>148</ele>
        <time>2013-03-14T13:18:53Z</time>
      </trkpt>
      <trkpt lat="43.22406" lon="5.43857">
        <ele>147</ele>
        <time>2013-03-14T13:18:57Z</time>
      </trkpt>
      <trkpt lat="43.22401" lon="5.43859">
        <ele>147</ele>
        <time>2013-03-14T13:19:01Z</time>
      </trkpt>
      <trkpt lat="43.22396" lon="5.43862">
        <ele>147</ele>
        <time>2013-03-14T13:19:05Z</time>
      </trkpt>
      <trkpt lat="43.22392" lon="5.43865">
        <ele>147</ele>
        <time>2013-03-14T13:19:09Z</time>
      </trkpt>
      <trkpt lat="43.22387" lon="5.43868">
        <ele>147</ele>
        <time>2013-03-14T13:19:13Z</time>
      </trkpt>
      <trkpt lat="43.22382" lon="5.4387">
        <ele>148</ele>
        <time>2013-03-14T13:19:17Z</time>
      </trkpt>
      <trkpt lat="43.22376" lon="5.43872">
        <ele>148</ele>
        <time>2013-03-14T13:19:21Z</time>
      </trkpt>
      <trkpt lat="43.22372" lon="5.43874">
        <ele>148</ele>
        <time>2013-03-14T13:19:25Z</time>
      </trkpt>
      <trkpt lat="43.22367" lon="5.43878">
        <ele>148</ele>
        <time>2013-03-14T13:19:29Z</time>
      </trkpt>
      <trkpt lat="43.22363" lon="5.43882">
        <ele>148</ele>
        <time>2013-03-14T13:19:33Z</time>
      </trkpt>
      <trkpt lat="43.22361" lon="5.43888">
        <ele>147</ele>
        <time>2013-03-14T13:19:37Z</time>
      </trkpt>
      <trkpt lat="43.22356" lon="5.43891">
        <ele>146</ele>
        <time>2013-03-14T13:19:41Z</time>
      </trkpt>
      <trkpt lat="43.22351" lon="5.43894">
        <ele>146</ele>
        <time>2013-03-14T13:19:45Z</time>
      </trkpt>
      <trkpt lat="43.22348" lon="5.43899">
        <ele>145</ele>
        <time>2013-03-14T13:19:49Z</time>
      </trkpt>
      <trkpt lat="43.22344" lon="5.43904">
        <ele>144</ele>
        <time>2013-03-14T13:19:54Z</time>
      </trkpt>
      <trkpt lat="43.22341" lon="5.43908">
        <ele>144</ele>
        <time>2013-03-14T13:19:58Z</time>
      </trkpt>
      <trkpt lat="43.22337" lon="5.43914">
        <ele>144</ele>
        <time>2013-03-14T13:20:02Z</time>
      </trkpt>
      <trkpt lat="43.22334" lon="5.4392">
        <ele>145</ele>
        <time>2013-03-14T13:20:06Z</time>
      </trkpt>
      <trkpt lat="43.2233" lon="5.43926">
        <ele>145</ele>
        <time>2013-03-14T13:20:10Z</time>
      </trkpt>
      <trkpt lat="43.22327" lon="5.43931">
        <ele>146</ele>
        <time>2013-03-14T13:20:14Z</time>
      </trkpt>
      <trkpt lat="43.22324" lon="5.43935">
        <ele>146</ele>
        <time>2013-03-14T13:20:18Z</time>
      </trkpt>
      <trkpt lat="43.22319" lon="5.43939">
        <ele>147</ele>
        <time>2013-03-14T13:20:22Z</time>
      </trkpt>
      <trkpt lat="43.22315" lon="5.43944">
        <ele>147</ele>
        <time>2013-03-14T13:20:26Z</time>
      </trkpt>
      <trkpt lat="43.22311" lon="5.43948">
        <ele>147</ele>
        <time>2013-03-14T13:20:30Z</time>
      </trkpt>
      <trkpt lat="43.22307" lon="5.43952">
        <ele>147</ele>
        <time>2013-03-14T13:20:34Z</time>
      </trkpt>
      <trkpt lat="43.22298" lon="5.43959">
        <ele>148</ele>
        <time>2013-03-14T13:20:43Z</time>
      </trkpt>
      <trkpt lat="43.2229" lon="5.43965">
        <ele>150</ele>
        <time>2013-03-14T13:20:50Z</time>
      </trkpt>
      <trkpt lat="43.22282" lon="5.43973">
        <ele>151</ele>
        <time>2013-03-14T13:20:58Z</time>
      </trkpt>
      <trkpt lat="43.22274" lon="5.4398">
        <ele>151</ele>
        <time>2013-03-14T13:21:05Z</time>
      </trkpt>
      <trkpt lat="43.22265" lon="5.43985">
        <ele>151</ele>
        <time>2013-03-14T13:21:12Z</time>
      </trkpt>
      <trkpt lat="43.22255" lon="5.43988">
        <ele>149</ele>
        <time>2013-03-14T13:21:20Z</time>
      </trkpt>
      <trkpt lat="43.22246" lon="5.43991">
        <ele>149</ele>
        <time>2013-03-14T13:21:27Z</time>
      </trkpt>
      <trkpt lat="43.22237" lon="5.43997">
        <ele>149</ele>
        <time>2013-03-14T13:21:35Z</time>
      </trkpt>
      <trkpt lat="43.22228" lon="5.43999">
        <ele>149</ele>
        <time>2013-03-14T13:21:43Z</time>
      </trkpt>
      <trkpt lat="43.22219" lon="5.44005">
        <ele>149</ele>
        <time>2013-03-14T13:21:51Z</time>
      </trkpt>
      <trkpt lat="43.2221" lon="5.44009">
        <ele>149</ele>
        <time>2013-03-14T13:21:59Z</time>
      </trkpt>
      <trkpt lat="43.22201" lon="5.44013">
        <ele>149</ele>
        <time>2013-03-14T13:22:07Z</time>
      </trkpt>
      <trkpt lat="43.22192" lon="5.44015">
        <ele>148</ele>
        <time>2013-03-14T13:22:14Z</time>
      </trkpt>
      <trkpt lat="43.22183" lon="5.44017">
        <ele>149</ele>
        <time>2013-03-14T13:22:21Z</time>
      </trkpt>
      <trkpt lat="43.22173" lon="5.44023">
        <ele>150</ele>
        <time>2013-03-14T13:22:29Z</time>
      </trkpt>
      <trkpt lat="43.22165" lon="5.4403">
        <ele>151</ele>
        <time>2013-03-14T13:22:37Z</time>
      </trkpt>
      <trkpt lat="43.22161" lon="5.44034">
        <ele>150</ele>
        <time>2013-03-14T13:22:41Z</time>
      </trkpt>
      <trkpt lat="43.22158" lon="5.44037">
        <ele>150</ele>
        <time>2013-03-14T13:22:45Z</time>
      </trkpt>
      <trkpt lat="43.22153" lon="5.44042">
        <ele>151</ele>
        <time>2013-03-14T13:22:49Z</time>
      </trkpt>
      <trkpt lat="43.2215" lon="5.44046">
        <ele>151</ele>
        <time>2013-03-14T13:22:53Z</time>
      </trkpt>
      <trkpt lat="43.22146" lon="5.44049">
        <ele>152</ele>
        <time>2013-03-14T13:22:56Z</time>
      </trkpt>
      <trkpt lat="43.22142" lon="5.44054">
        <ele>152</ele>
        <time>2013-03-14T13:23:00Z</time>
      </trkpt>
      <trkpt lat="43.22139" lon="5.44059">
        <ele>152</ele>
        <time>2013-03-14T13:23:05Z</time>
      </trkpt>
      <trkpt lat="43.22135" lon="5.44062">
        <ele>152</ele>
        <time>2013-03-14T13:23:09Z</time>
      </trkpt>
      <trkpt lat="43.2213" lon="5.44065">
        <ele>152</ele>
        <time>2013-03-14T13:23:13Z</time>
      </trkpt>
      <trkpt lat="43.22126" lon="5.44068">
        <ele>154</ele>
        <time>2013-03-14T13:23:16Z</time>
      </trkpt>
      <trkpt lat="43.22121" lon="5.44071">
        <ele>155</ele>
        <time>2013-03-14T13:23:19Z</time>
      </trkpt>
      <trkpt lat="43.22117" lon="5.44074">
        <ele>156</ele>
        <time>2013-03-14T13:23:22Z</time>
      </trkpt>
      <trkpt lat="43.22112" lon="5.44078">
        <ele>157</ele>
        <time>2013-03-14T13:23:26Z</time>
      </trkpt>
      <trkpt lat="43.22108" lon="5.44082">
        <ele>157</ele>
        <time>2013-03-14T13:23:30Z</time>
      </trkpt>
      <trkpt lat="43.22102" lon="5.44085">
        <ele>158</ele>
        <time>2013-03-14T13:23:34Z</time>
      </trkpt>
      <trkpt lat="43.22097" lon="5.44088">
        <ele>158</ele>
        <time>2013-03-14T13:23:38Z</time>
      </trkpt>
      <trkpt lat="43.22093" lon="5.44094">
        <ele>158</ele>
        <time>2013-03-14T13:23:42Z</time>
      </trkpt>
      <trkpt lat="43.22089" lon="5.44099">
        <ele>158</ele>
        <time>2013-03-14T13:23:46Z</time>
      </trkpt>
      <trkpt lat="43.22085" lon="5.44104">
        <ele>158</ele>
        <time>2013-03-14T13:23:50Z</time>
      </trkpt>
      <trkpt lat="43.22082" lon="5.4411">
        <ele>159</ele>
        <time>2013-03-14T13:23:54Z</time>
      </trkpt>
      <trkpt lat="43.22078" lon="5.44115">
        <ele>159</ele>
        <time>2013-03-14T13:23:58Z</time>
      </trkpt>
      <trkpt lat="43.22075" lon="5.4412">
        <ele>159</ele>
        <time>2013-03-14T13:24:02Z</time>
      </trkpt>
      <trkpt lat="43.22074" lon="5.44127">
        <ele>160</ele>
        <time>2013-03-14T13:24:06Z</time>
      </trkpt>
      <trkpt lat="43.22071" lon="5.44132">
        <ele>161</ele>
        <time>2013-03-14T13:24:10Z</time>
      </trkpt>
      <trkpt lat="43.22067" lon="5.44138">
        <ele>161</ele>
        <time>2013-03-14T13:24:14Z</time>
      </trkpt>
      <trkpt lat="43.22065" lon="5.44144">
        <ele>162</ele>
        <time>2013-03-14T13:24:18Z</time>
      </trkpt>
      <trkpt lat="43.22063" lon="5.4415">
        <ele>162</ele>
        <time>2013-03-14T13:24:22Z</time>
      </trkpt>
      <trkpt lat="43.22061" lon="5.44156">
        <ele>162</ele>
        <time>2013-03-14T13:24:26Z</time>
      </trkpt>
      <trkpt lat="43.22058" lon="5.44162">
        <ele>163</ele>
        <time>2013-03-14T13:24:30Z</time>
      </trkpt>
      <trkpt lat="43.22056" lon="5.44169">
        <ele>163</ele>
        <time>2013-03-14T13:24:34Z</time>
      </trkpt>
      <trkpt lat="43.22055" lon="5.44176">
        <ele>163</ele>
        <time>2013-03-14T13:24:38Z</time>
      </trkpt>
      <trkpt lat="43.22053" lon="5.44183">
        <ele>162</ele>
        <time>2013-03-14T13:24:42Z</time>
      </trkpt>
      <trkpt lat="43.22051" lon="5.44189">
        <ele>162</ele>
        <time>2013-03-14T13:24:46Z</time>
      </trkpt>
      <trkpt lat="43.2205" lon="5.44195">
        <ele>161</ele>
        <time>2013-03-14T13:24:50Z</time>
      </trkpt>
      <trkpt lat="43.22048" lon="5.44201">
        <ele>162</ele>
        <time>2013-03-14T13:24:54Z</time>
      </trkpt>
      <trkpt lat="43.22044" lon="5.44207">
        <ele>162</ele>
        <time>2013-03-14T13:24:58Z</time>
      </trkpt>
      <trkpt lat="43.22038" lon="5.44218">
        <ele>163</ele>
        <time>2013-03-14T13:25:05Z</time>
      </trkpt>
      <trkpt lat="43.22035" lon="5.44231">
        <ele>165</ele>
        <time>2013-03-14T13:25:12Z</time>
      </trkpt>
      <trkpt lat="43.22033" lon="5.44243">
        <ele>166</ele>
        <time>2013-03-14T13:25:19Z</time>
      </trkpt>
      <trkpt lat="43.2203" lon="5.44256">
        <ele>166</ele>
        <time>2013-03-14T13:25:27Z</time>
      </trkpt>
      <trkpt lat="43.22027" lon="5.44269">
        <ele>166</ele>
        <time>2013-03-14T13:25:36Z</time>
      </trkpt>
      <trkpt lat="43.22023" lon="5.4428">
        <ele>168</ele>
        <time>2013-03-14T13:25:44Z</time>
      </trkpt>
      <trkpt lat="43.22018" lon="5.44291">
        <ele>168</ele>
        <time>2013-03-14T13:25:53Z</time>
      </trkpt>
      <trkpt lat="43.22011" lon="5.44301">
        <ele>169</ele>
        <time>2013-03-14T13:26:00Z</time>
      </trkpt>
      <trkpt lat="43.22005" lon="5.4431">
        <ele>169</ele>
        <time>2013-03-14T13:26:07Z</time>
      </trkpt>
      <trkpt lat="43.21999" lon="5.44321">
        <ele>167</ele>
        <time>2013-03-14T13:26:15Z</time>
      </trkpt>
      <trkpt lat="43.21993" lon="5.44332">
        <ele>167</ele>
        <time>2013-03-14T13:26:23Z</time>
      </trkpt>
      <trkpt lat="43.21986" lon="5.44341">
        <ele>169</ele>
        <time>2013-03-14T13:26:30Z</time>
      </trkpt>
      <trkpt lat="43.21982" lon="5.44353">
        <ele>169</ele>
        <time>2013-03-14T13:26:38Z</time>
      </trkpt>
      <trkpt lat="43.2198" lon="5.44366">
        <ele>168</ele>
        <time>2013-03-14T13:26:46Z</time>
      </trkpt>
      <trkpt lat="43.21973" lon="5.44375">
        <ele>168</ele>
        <time>2013-03-14T13:26:53Z</time>
      </trkpt>
      <trkpt lat="43.21968" lon="5.44387">
        <ele>168</ele>
        <time>2013-03-14T13:27:01Z</time>
      </trkpt>
      <trkpt lat="43.21962" lon="5.44397">
        <ele>170</ele>
        <time>2013-03-14T13:27:08Z</time>
      </trkpt>
      <trkpt lat="43.21955" lon="5.44406">
        <ele>171</ele>
        <time>2013-03-14T13:27:15Z</time>
      </trkpt>
      <trkpt lat="43.21949" lon="5.44416">
        <ele>170</ele>
        <time>2013-03-14T13:27:23Z</time>
      </trkpt>
      <trkpt lat="43.21942" lon="5.44425">
        <ele>170</ele>
        <time>2013-03-14T13:27:32Z</time>
      </trkpt>
      <trkpt lat="43.21937" lon="5.44435">
        <ele>170</ele>
        <time>2013-03-14T13:27:40Z</time>
      </trkpt>
      <trkpt lat="43.21931" lon="5.44446">
        <ele>171</ele>
        <time>2013-03-14T13:27:49Z</time>
      </trkpt>
      <trkpt lat="43.21929" lon="5.44459">
        <ele>172</ele>
        <time>2013-03-14T13:27:57Z</time>
      </trkpt>
      <trkpt lat="43.21926" lon="5.44471">
        <ele>172</ele>
        <time>2013-03-14T13:28:04Z</time>
      </trkpt>
      <trkpt lat="43.21924" lon="5.44484">
        <ele>173</ele>
        <time>2013-03-14T13:28:12Z</time>
      </trkpt>
      <trkpt lat="43.21924" lon="5.44498">
        <ele>173</ele>
        <time>2013-03-14T13:28:20Z</time>
      </trkpt>
      <trkpt lat="43.21923" lon="5.44512">
        <ele>175</ele>
        <time>2013-03-14T13:28:28Z</time>
      </trkpt>
      <trkpt lat="43.21919" lon="5.4452">
        <ele>177</ele>
        <time>2013-03-14T13:28:34Z</time>
      </trkpt>
      <trkpt lat="43.21918" lon="5.44527">
        <ele>179</ele>
        <time>2013-03-14T13:28:38Z</time>
      </trkpt>
      <trkpt lat="43.21916" lon="5.44533">
        <ele>181</ele>
        <time>2013-03-14T13:28:42Z</time>
      </trkpt>
      <trkpt lat="43.21914" lon="5.44539">
        <ele>182</ele>
        <time>2013-03-14T13:28:46Z</time>
      </trkpt>
      <trkpt lat="43.21916" lon="5.44545">
        <ele>183</ele>
        <time>2013-03-14T13:28:50Z</time>
      </trkpt>
      <trkpt lat="43.21914" lon="5.44551">
        <ele>183</ele>
        <time>2013-03-14T13:28:54Z</time>
      </trkpt>
      <trkpt lat="43.21912" lon="5.44557">
        <ele>184</ele>
        <time>2013-03-14T13:28:58Z</time>
      </trkpt>
      <trkpt lat="43.2191" lon="5.44563">
        <ele>185</ele>
        <time>2013-03-14T13:29:02Z</time>
      </trkpt>
      <trkpt lat="43.21907" lon="5.44569">
        <ele>185</ele>
        <time>2013-03-14T13:29:06Z</time>
      </trkpt>
      <trkpt lat="43.21904" lon="5.44575">
        <ele>186</ele>
        <time>2013-03-14T13:29:10Z</time>
      </trkpt>
      <trkpt lat="43.219" lon="5.44581">
        <ele>187</ele>
        <time>2013-03-14T13:29:14Z</time>
      </trkpt>
      <trkpt lat="43.21898" lon="5.44587">
        <ele>187</ele>
        <time>2013-03-14T13:29:18Z</time>
      </trkpt>
      <trkpt lat="43.21897" lon="5.44595">
        <ele>189</ele>
        <time>2013-03-14T13:29:23Z</time>
      </trkpt>
      <trkpt lat="43.21894" lon="5.44601">
        <ele>189</ele>
        <time>2013-03-14T13:29:27Z</time>
      </trkpt>
      <trkpt lat="43.21893" lon="5.44607">
        <ele>189</ele>
        <time>2013-03-14T13:29:31Z</time>
      </trkpt>
      <trkpt lat="43.21891" lon="5.44614">
        <ele>190</ele>
        <time>2013-03-14T13:29:36Z</time>
      </trkpt>
      <trkpt lat="43.21888" lon="5.4462">
        <ele>192</ele>
        <time>2013-03-14T13:29:41Z</time>
      </trkpt>
      <trkpt lat="43.21885" lon="5.44627">
        <ele>192</ele>
        <time>2013-03-14T13:29:46Z</time>
      </trkpt>
      <trkpt lat="43.21882" lon="5.44632">
        <ele>192</ele>
        <time>2013-03-14T13:29:49Z</time>
      </trkpt>
      <trkpt lat="43.2188" lon="5.44639">
        <ele>193</ele>
        <time>2013-03-14T13:29:53Z</time>
      </trkpt>
      <trkpt lat="43.21878" lon="5.44645">
        <ele>194</ele>
        <time>2013-03-14T13:29:57Z</time>
      </trkpt>
      <trkpt lat="43.21876" lon="5.44651">
        <ele>195</ele>
        <time>2013-03-14T13:30:01Z</time>
      </trkpt>
      <trkpt lat="43.21875" lon="5.44658">
        <ele>195</ele>
        <time>2013-03-14T13:30:05Z</time>
      </trkpt>
      <trkpt lat="43.21875" lon="5.44665">
        <ele>195</ele>
        <time>2013-03-14T13:30:08Z</time>
      </trkpt>
      <trkpt lat="43.21877" lon="5.44672">
        <ele>194</ele>
        <time>2013-03-14T13:30:12Z</time>
      </trkpt>
      <trkpt lat="43.21877" lon="5.44679">
        <ele>194</ele>
        <time>2013-03-14T13:30:16Z</time>
      </trkpt>
      <trkpt lat="43.21875" lon="5.44685">
        <ele>195</ele>
        <time>2013-03-14T13:30:20Z</time>
      </trkpt>
      <trkpt lat="43.21876" lon="5.44691">
        <ele>196</ele>
        <time>2013-03-14T13:30:24Z</time>
      </trkpt>
      <trkpt lat="43.21875" lon="5.44699">
        <ele>196</ele>
        <time>2013-03-14T13:30:28Z</time>
      </trkpt>
      <trkpt lat="43.21875" lon="5.44706">
        <ele>196</ele>
        <time>2013-03-14T13:30:33Z</time>
      </trkpt>
      <trkpt lat="43.21876" lon="5.44713">
        <ele>197</ele>
        <time>2013-03-14T13:30:38Z</time>
      </trkpt>
      <trkpt lat="43.21878" lon="5.4472">
        <ele>198</ele>
        <time>2013-03-14T13:30:43Z</time>
      </trkpt>
      <trkpt lat="43.21879" lon="5.44726">
        <ele>198</ele>
        <time>2013-03-14T13:30:47Z</time>
      </trkpt>
      <trkpt lat="43.21882" lon="5.44732">
        <ele>199</ele>
        <time>2013-03-14T13:30:51Z</time>
      </trkpt>
      <trkpt lat="43.21885" lon="5.44737">
        <ele>198</ele>
        <time>2013-03-14T13:30:55Z</time>
      </trkpt>
      <trkpt lat="43.21888" lon="5.44743">
        <ele>197</ele>
        <time>2013-03-14T13:30:59Z</time>
      </trkpt>
      <trkpt lat="43.21889" lon="5.4475">
        <ele>196</ele>
        <time>2013-03-14T13:31:03Z</time>
      </trkpt>
      <trkpt lat="43.21889" lon="5.44756">
        <ele>196</ele>
        <time>2013-03-14T13:31:07Z</time>
      </trkpt>
      <trkpt lat="43.21886" lon="5.44763">
        <ele>196</ele>
        <time>2013-03-14T13:31:11Z</time>
      </trkpt>
      <trkpt lat="43.21883" lon="5.44769">
        <ele>196</ele>
        <time>2013-03-14T13:31:15Z</time>
      </trkpt>
      <trkpt lat="43.21881" lon="5.44775">
        <ele>196</ele>
        <time>2013-03-14T13:31:19Z</time>
      </trkpt>
      <trkpt lat="43.21878" lon="5.44781">
        <ele>195</ele>
        <time>2013-03-14T13:31:23Z</time>
      </trkpt>
      <trkpt lat="43.21881" lon="5.44785">
        <ele>194</ele>
        <time>2013-03-14T13:31:37Z</time>
      </trkpt>
      <trkpt lat="43.21875" lon="5.4479">
        <ele>194</ele>
        <time>2013-03-14T13:31:57Z</time>
      </trkpt>
      <trkpt lat="43.21877" lon="5.44792">
        <ele>195</ele>
        <time>2013-03-14T13:32:19Z</time>
      </trkpt>
      <trkpt lat="43.21879" lon="5.44795">
        <ele>197</ele>
        <time>2013-03-14T13:32:41Z</time>
      </trkpt>
      <trkpt lat="43.21879" lon="5.44802">
        <ele>199</ele>
        <time>2013-03-14T13:32:47Z</time>
      </trkpt>
      <trkpt lat="43.21879" lon="5.4481">
        <ele>198</ele>
        <time>2013-03-14T13:32:51Z</time>
      </trkpt>
      <trkpt lat="43.21881" lon="5.44817">
        <ele>197</ele>
        <time>2013-03-14T13:32:55Z</time>
      </trkpt>
      <trkpt lat="43.21883" lon="5.44825">
        <ele>195</ele>
        <time>2013-03-14T13:33:00Z</time>
      </trkpt>
      <trkpt lat="43.21883" lon="5.44832">
        <ele>196</ele>
        <time>2013-03-14T13:33:05Z</time>
      </trkpt>
      <trkpt lat="43.2188" lon="5.44837">
        <ele>196</ele>
        <time>2013-03-14T13:33:08Z</time>
      </trkpt>
      <trkpt lat="43.21878" lon="5.44844">
        <ele>196</ele>
        <time>2013-03-14T13:33:12Z</time>
      </trkpt>
      <trkpt lat="43.21875" lon="5.44849">
        <ele>194</ele>
        <time>2013-03-14T13:33:16Z</time>
      </trkpt>
      <trkpt lat="43.21871" lon="5.44853">
        <ele>192</ele>
        <time>2013-03-14T13:33:22Z</time>
      </trkpt>
      <trkpt lat="43.21865" lon="5.44854">
        <ele>193</ele>
        <time>2013-03-14T13:33:33Z</time>
      </trkpt>
      <trkpt lat="43.21859" lon="5.44853">
        <ele>193</ele>
        <time>2013-03-14T13:33:36Z</time>
      </trkpt>
      <trkpt lat="43.21854" lon="5.44854">
        <ele>193</ele>
        <time>2013-03-14T13:33:39Z</time>
      </trkpt>
      <trkpt lat="43.21848" lon="5.44855">
        <ele>193</ele>
        <time>2013-03-14T13:33:43Z</time>
      </trkpt>
      <trkpt lat="43.21843" lon="5.44857">
        <ele>194</ele>
        <time>2013-03-14T13:33:48Z</time>
      </trkpt>
      <trkpt lat="43.21838" lon="5.44857">
        <ele>193</ele>
        <time>2013-03-14T13:33:52Z</time>
      </trkpt>
      <trkpt lat="43.21832" lon="5.44857">
        <ele>193</ele>
        <time>2013-03-14T13:33:57Z</time>
      </trkpt>
      <trkpt lat="43.21827" lon="5.44857">
        <ele>194</ele>
        <time>2013-03-14T13:34:01Z</time>
      </trkpt>
      <trkpt lat="43.21822" lon="5.44859">
        <ele>192</ele>
        <time>2013-03-14T13:34:06Z</time>
      </trkpt>
      <trkpt lat="43.21818" lon="5.44864">
        <ele>192</ele>
        <time>2013-03-14T13:34:10Z</time>
      </trkpt>
      <trkpt lat="43.21813" lon="5.44868">
        <ele>193</ele>
        <time>2013-03-14T13:34:14Z</time>
      </trkpt>
      <trkpt lat="43.21811" lon="5.44875">
        <ele>193</ele>
        <time>2013-03-14T13:34:18Z</time>
      </trkpt>
      <trkpt lat="43.21811" lon="5.44883">
        <ele>193</ele>
        <time>2013-03-14T13:34:22Z</time>
      </trkpt>
      <trkpt lat="43.21813" lon="5.44889">
        <ele>192</ele>
        <time>2013-03-14T13:34:25Z</time>
      </trkpt>
      <trkpt lat="43.21813" lon="5.44897">
        <ele>192</ele>
        <time>2013-03-14T13:34:29Z</time>
      </trkpt>
      <trkpt lat="43.21813" lon="5.44905">
        <ele>191</ele>
        <time>2013-03-14T13:34:33Z</time>
      </trkpt>
      <trkpt lat="43.2181" lon="5.44912">
        <ele>191</ele>
        <time>2013-03-14T13:34:37Z</time>
      </trkpt>
      <trkpt lat="43.21806" lon="5.44916">
        <ele>190</ele>
        <time>2013-03-14T13:34:41Z</time>
      </trkpt>
      <trkpt lat="43.21801" lon="5.44918">
        <ele>190</ele>
        <time>2013-03-14T13:34:45Z</time>
      </trkpt>
      <trkpt lat="43.21796" lon="5.44916">
        <ele>190</ele>
        <time>2013-03-14T13:34:49Z</time>
      </trkpt>
      <trkpt lat="43.21791" lon="5.44915">
        <ele>189</ele>
        <time>2013-03-14T13:34:53Z</time>
      </trkpt>
      <trkpt lat="43.21785" lon="5.44914">
        <ele>191</ele>
        <time>2013-03-14T13:34:57Z</time>
      </trkpt>
      <trkpt lat="43.2178" lon="5.44915">
        <ele>191</ele>
        <time>2013-03-14T13:35:01Z</time>
      </trkpt>
      <trkpt lat="43.21776" lon="5.44917">
        <ele>191</ele>
        <time>2013-03-14T13:35:05Z</time>
      </trkpt>
      <trkpt lat="43.21772" lon="5.44918">
        <ele>190</ele>
        <time>2013-03-14T13:35:09Z</time>
      </trkpt>
      <trkpt lat="43.21767" lon="5.44918">
        <ele>190</ele>
        <time>2013-03-14T13:35:13Z</time>
      </trkpt>
      <trkpt lat="43.21762" lon="5.44918">
        <ele>190</ele>
        <time>2013-03-14T13:35:17Z</time>
      </trkpt>
      <trkpt lat="43.21756" lon="5.44919">
        <ele>190</ele>
        <time>2013-03-14T13:35:21Z</time>
      </trkpt>
      <trkpt lat="43.21751" lon="5.44921">
        <ele>190</ele>
        <time>2013-03-14T13:35:25Z</time>
      </trkpt>
      <trkpt lat="43.21748" lon="5.44926">
        <ele>191</ele>
        <time>2013-03-14T13:35:28Z</time>
      </trkpt>
      <trkpt lat="43.21745" lon="5.44932">
        <ele>191</ele>
        <time>2013-03-14T13:35:32Z</time>
      </trkpt>
      <trkpt lat="43.2174" lon="5.44936">
        <ele>192</ele>
        <time>2013-03-14T13:35:36Z</time>
      </trkpt>
      <trkpt lat="43.21735" lon="5.4494">
        <ele>192</ele>
        <time>2013-03-14T13:35:40Z</time>
      </trkpt>
      <trkpt lat="43.2173" lon="5.4494">
        <ele>191</ele>
        <time>2013-03-14T13:35:43Z</time>
      </trkpt>
      <trkpt lat="43.21725" lon="5.44939">
        <ele>190</ele>
        <time>2013-03-14T13:35:47Z</time>
      </trkpt>
      <trkpt lat="43.21719" lon="5.44939">
        <ele>189</ele>
        <time>2013-03-14T13:35:52Z</time>
      </trkpt>
      <trkpt lat="43.21719" lon="5.44946">
        <ele>188</ele>
        <time>2013-03-14T13:35:56Z</time>
      </trkpt>
      <trkpt lat="43.21716" lon="5.44951">
        <ele>188</ele>
        <time>2013-03-14T13:36:00Z</time>
      </trkpt>
      <trkpt lat="43.21712" lon="5.44953">
        <ele>188</ele>
        <time>2013-03-14T13:36:04Z</time>
      </trkpt>
      <trkpt lat="43.21707" lon="5.44956">
        <ele>188</ele>
        <time>2013-03-14T13:36:08Z</time>
      </trkpt>
      <trkpt lat="43.21702" lon="5.4496">
        <ele>188</ele>
        <time>2013-03-14T13:36:11Z</time>
      </trkpt>
      <trkpt lat="43.21699" lon="5.44964">
        <ele>188</ele>
        <time>2013-03-14T13:36:14Z</time>
      </trkpt>
      <trkpt lat="43.21695" lon="5.44969">
        <ele>189</ele>
        <time>2013-03-14T13:36:17Z</time>
      </trkpt>
      <trkpt lat="43.21692" lon="5.44973">
        <ele>189</ele>
        <time>2013-03-14T13:36:20Z</time>
      </trkpt>
      <trkpt lat="43.21689" lon="5.4498">
        <ele>190</ele>
        <time>2013-03-14T13:36:24Z</time>
      </trkpt>
      <trkpt lat="43.21687" lon="5.44986">
        <ele>189</ele>
        <time>2013-03-14T13:36:27Z</time>
      </trkpt>
      <trkpt lat="43.21684" lon="5.44992">
        <ele>189</ele>
        <time>2013-03-14T13:36:31Z</time>
      </trkpt>
      <trkpt lat="43.21682" lon="5.44999">
        <ele>189</ele>
        <time>2013-03-14T13:36:35Z</time>
      </trkpt>
      <trkpt lat="43.2168" lon="5.45005">
        <ele>189</ele>
        <time>2013-03-14T13:36:40Z</time>
      </trkpt>
      <trkpt lat="43.21678" lon="5.45011">
        <ele>189</ele>
        <time>2013-03-14T13:36:44Z</time>
      </trkpt>
      <trkpt lat="43.21677" lon="5.45017">
        <ele>189</ele>
        <time>2013-03-14T13:36:48Z</time>
      </trkpt>
      <trkpt lat="43.21675" lon="5.45023">
        <ele>189</ele>
        <time>2013-03-14T13:36:52Z</time>
      </trkpt>
      <trkpt lat="43.21675" lon="5.4503">
        <ele>189</ele>
        <time>2013-03-14T13:36:56Z</time>
      </trkpt>
      <trkpt lat="43.21676" lon="5.45036">
        <ele>189</ele>
        <time>2013-03-14T13:37:00Z</time>
      </trkpt>
      <trkpt lat="43.21679" lon="5.45042">
        <ele>189</ele>
        <time>2013-03-14T13:37:04Z</time>
      </trkpt>
      <trkpt lat="43.21683" lon="5.45046">
        <ele>188</ele>
        <time>2013-03-14T13:37:08Z</time>
      </trkpt>
      <trkpt lat="43.21687" lon="5.4505">
        <ele>187</ele>
        <time>2013-03-14T13:37:12Z</time>
      </trkpt>
      <trkpt lat="43.21691" lon="5.45056">
        <ele>187</ele>
        <time>2013-03-14T13:37:17Z</time>
      </trkpt>
      <trkpt lat="43.21693" lon="5.45063">
        <ele>188</ele>
        <time>2013-03-14T13:37:21Z</time>
      </trkpt>
      <trkpt lat="43.21696" lon="5.45069">
        <ele>189</ele>
        <time>2013-03-14T13:37:25Z</time>
      </trkpt>
      <trkpt lat="43.21699" lon="5.45074">
        <ele>190</ele>
        <time>2013-03-14T13:37:29Z</time>
      </trkpt>
      <trkpt lat="43.21702" lon="5.4508">
        <ele>191</ele>
        <time>2013-03-14T13:37:33Z</time>
      </trkpt>
      <trkpt lat="43.21706" lon="5.45084">
        <ele>192</ele>
        <time>2013-03-14T13:37:37Z</time>
      </trkpt>
      <trkpt lat="43.21708" lon="5.4509">
        <ele>193</ele>
        <time>2013-03-14T13:37:41Z</time>
      </trkpt>
      <trkpt lat="43.2171" lon="5.45096">
        <ele>195</ele>
        <time>2013-03-14T13:37:45Z</time>
      </trkpt>
      <trkpt lat="43.21712" lon="5.45102">
        <ele>194</ele>
        <time>2013-03-14T13:37:49Z</time>
      </trkpt>
      <trkpt lat="43.21713" lon="5.45109">
        <ele>194</ele>
        <time>2013-03-14T13:37:53Z</time>
      </trkpt>
      <trkpt lat="43.21716" lon="5.45116">
        <ele>193</ele>
        <time>2013-03-14T13:37:57Z</time>
      </trkpt>
      <trkpt lat="43.21717" lon="5.45123">
        <ele>192</ele>
        <time>2013-03-14T13:38:01Z</time>
      </trkpt>
      <trkpt lat="43.21718" lon="5.4513">
        <ele>190</ele>
        <time>2013-03-14T13:38:05Z</time>
      </trkpt>
      <trkpt lat="43.21718" lon="5.45137">
        <ele>188</ele>
        <time>2013-03-14T13:38:09Z</time>
      </trkpt>
      <trkpt lat="43.21717" lon="5.45143">
        <ele>187</ele>
        <time>2013-03-14T13:38:13Z</time>
      </trkpt>
      <trkpt lat="43.21718" lon="5.4515">
        <ele>186</ele>
        <time>2013-03-14T13:38:19Z</time>
      </trkpt>
      <trkpt lat="43.21718" lon="5.45158">
        <ele>186</ele>
        <time>2013-03-14T13:38:24Z</time>
      </trkpt>
      <trkpt lat="43.21718" lon="5.45164">
        <ele>187</ele>
        <time>2013-03-14T13:38:28Z</time>
      </trkpt>
      <trkpt lat="43.21718" lon="5.45172">
        <ele>188</ele>
        <time>2013-03-14T13:38:32Z</time>
      </trkpt>
      <trkpt lat="43.21717" lon="5.45179">
        <ele>189</ele>
        <time>2013-03-14T13:38:36Z</time>
      </trkpt>
      <trkpt lat="43.21717" lon="5.45185">
        <ele>189</ele>
        <time>2013-03-14T13:38:40Z</time>
      </trkpt>
      <trkpt lat="43.21718" lon="5.45191">
        <ele>189</ele>
        <time>2013-03-14T13:38:44Z</time>
      </trkpt>
      <trkpt lat="43.21719" lon="5.45197">
        <ele>189</ele>
        <time>2013-03-14T13:38:48Z</time>
      </trkpt>
      <trkpt lat="43.21718" lon="5.45205">
        <ele>189</ele>
        <time>2013-03-14T13:38:53Z</time>
      </trkpt>
      <trkpt lat="43.2172" lon="5.45211">
        <ele>189</ele>
        <time>2013-03-14T13:38:57Z</time>
      </trkpt>
      <trkpt lat="43.21723" lon="5.45218">
        <ele>189</ele>
        <time>2013-03-14T13:39:02Z</time>
      </trkpt>
      <trkpt lat="43.21724" lon="5.45226">
        <ele>189</ele>
        <time>2013-03-14T13:39:06Z</time>
      </trkpt>
      <trkpt lat="43.21724" lon="5.45233">
        <ele>189</ele>
        <time>2013-03-14T13:39:10Z</time>
      </trkpt>
      <trkpt lat="43.21725" lon="5.4524">
        <ele>189</ele>
        <time>2013-03-14T13:39:14Z</time>
      </trkpt>
      <trkpt lat="43.21726" lon="5.45247">
        <ele>189</ele>
        <time>2013-03-14T13:39:18Z</time>
      </trkpt>
      <trkpt lat="43.21726" lon="5.45254">
        <ele>188</ele>
        <time>2013-03-14T13:39:20Z</time>
      </trkpt>
      <trkpt lat="43.21728" lon="5.45261">
        <ele>188</ele>
        <time>2013-03-14T13:39:24Z</time>
      </trkpt>
      <trkpt lat="43.21729" lon="5.45267">
        <ele>187</ele>
        <time>2013-03-14T13:39:28Z</time>
      </trkpt>
      <trkpt lat="43.2173" lon="5.45274">
        <ele>186</ele>
        <time>2013-03-14T13:39:33Z</time>
      </trkpt>
      <trkpt lat="43.21732" lon="5.4528">
        <ele>187</ele>
        <time>2013-03-14T13:39:38Z</time>
      </trkpt>
      <trkpt lat="43.21733" lon="5.45286">
        <ele>189</ele>
        <time>2013-03-14T13:39:43Z</time>
      </trkpt>
      <trkpt lat="43.21731" lon="5.45293">
        <ele>190</ele>
        <time>2013-03-14T13:39:49Z</time>
      </trkpt>
      <trkpt lat="43.21726" lon="5.45291">
        <ele>196</ele>
        <time>2013-03-14T13:40:01Z</time>
      </trkpt>
      <trkpt lat="43.21722" lon="5.45286">
        <ele>197</ele>
        <time>2013-03-14T13:40:04Z</time>
      </trkpt>
      <trkpt lat="43.21717" lon="5.45285">
        <ele>198</ele>
        <time>2013-03-14T13:40:08Z</time>
      </trkpt>
      <trkpt lat="43.21712" lon="5.45285">
        <ele>198</ele>
        <time>2013-03-14T13:40:12Z</time>
      </trkpt>
      <trkpt lat="43.21707" lon="5.45283">
        <ele>196</ele>
        <time>2013-03-14T13:40:17Z</time>
      </trkpt>
      <trkpt lat="43.21703" lon="5.45279">
        <ele>195</ele>
        <time>2013-03-14T13:40:21Z</time>
      </trkpt>
      <trkpt lat="43.21694" lon="5.4527">
        <ele>194</ele>
        <time>2013-03-14T13:40:28Z</time>
      </trkpt>
      <trkpt lat="43.21686" lon="5.45262">
        <ele>194</ele>
        <time>2013-03-14T13:40:34Z</time>
      </trkpt>
      <trkpt lat="43.21678" lon="5.45256">
        <ele>194</ele>
        <time>2013-03-14T13:40:41Z</time>
      </trkpt>
      <trkpt lat="43.21669" lon="5.45248">
        <ele>194</ele>
        <time>2013-03-14T13:40:48Z</time>
      </trkpt>
      <trkpt lat="43.21662" lon="5.4524">
        <ele>194</ele>
        <time>2013-03-14T13:40:54Z</time>
      </trkpt>
      <trkpt lat="43.21656" lon="5.45236">
        <ele>195</ele>
        <time>2013-03-14T13:40:59Z</time>
      </trkpt>
      <trkpt lat="43.21651" lon="5.45231">
        <ele>195</ele>
        <time>2013-03-14T13:41:03Z</time>
      </trkpt>
      <trkpt lat="43.21647" lon="5.45228">
        <ele>196</ele>
        <time>2013-03-14T13:41:07Z</time>
      </trkpt>
      <trkpt lat="43.21642" lon="5.45226">
        <ele>195</ele>
        <time>2013-03-14T13:41:11Z</time>
      </trkpt>
      <trkpt lat="43.21637" lon="5.45226">
        <ele>195</ele>
        <time>2013-03-14T13:41:15Z</time>
      </trkpt>
      <trkpt lat="43.21632" lon="5.45224">
        <ele>196</ele>
        <time>2013-03-14T13:41:19Z</time>
      </trkpt>
      <trkpt lat="43.21627" lon="5.45223">
        <ele>196</ele>
        <time>2013-03-14T13:41:23Z</time>
      </trkpt>
      <trkpt lat="43.21622" lon="5.45222">
        <ele>196</ele>
        <time>2013-03-14T13:41:27Z</time>
      </trkpt>
      <trkpt lat="43.21617" lon="5.45219">
        <ele>196</ele>
        <time>2013-03-14T13:41:31Z</time>
      </trkpt>
      <trkpt lat="43.21614" lon="5.45215">
        <ele>197</ele>
        <time>2013-03-14T13:41:34Z</time>
      </trkpt>
      <trkpt lat="43.2161" lon="5.45211">
        <ele>198</ele>
        <time>2013-03-14T13:41:37Z</time>
      </trkpt>
      <trkpt lat="43.21606" lon="5.45207">
        <ele>197</ele>
        <time>2013-03-14T13:41:40Z</time>
      </trkpt>
      <trkpt lat="43.21602" lon="5.45204">
        <ele>197</ele>
        <time>2013-03-14T13:41:44Z</time>
      </trkpt>
      <trkpt lat="43.21597" lon="5.45203">
        <ele>196</ele>
        <time>2013-03-14T13:41:52Z</time>
      </trkpt>
      <trkpt lat="43.21592" lon="5.45204">
        <ele>196</ele>
        <time>2013-03-14T13:41:57Z</time>
      </trkpt>
      <trkpt lat="43.21588" lon="5.45203">
        <ele>196</ele>
        <time>2013-03-14T13:42:01Z</time>
      </trkpt>
      <trkpt lat="43.21583" lon="5.45202">
        <ele>197</ele>
        <time>2013-03-14T13:42:05Z</time>
      </trkpt>
      <trkpt lat="43.21578" lon="5.452">
        <ele>197</ele>
        <time>2013-03-14T13:42:08Z</time>
      </trkpt>
      <trkpt lat="43.21572" lon="5.45198">
        <ele>198</ele>
        <time>2013-03-14T13:42:12Z</time>
      </trkpt>
      <trkpt lat="43.21567" lon="5.45199">
        <ele>199</ele>
        <time>2013-03-14T13:42:16Z</time>
      </trkpt>
      <trkpt lat="43.21561" lon="5.45199">
        <ele>199</ele>
        <time>2013-03-14T13:42:20Z</time>
      </trkpt>
      <trkpt lat="43.21556" lon="5.45199">
        <ele>199</ele>
        <time>2013-03-14T13:42:24Z</time>
      </trkpt>
      <trkpt lat="43.2155" lon="5.452">
        <ele>200</ele>
        <time>2013-03-14T13:42:29Z</time>
      </trkpt>
      <trkpt lat="43.21545" lon="5.45201">
        <ele>200</ele>
        <time>2013-03-14T13:42:33Z</time>
      </trkpt>
      <trkpt lat="43.2154" lon="5.45202">
        <ele>200</ele>
        <time>2013-03-14T13:42:37Z</time>
      </trkpt>
      <trkpt lat="43.21534" lon="5.45201">
        <ele>200</ele>
        <time>2013-03-14T13:42:41Z</time>
      </trkpt>
      <trkpt lat="43.21529" lon="5.452">
        <ele>201</ele>
        <time>2013-03-14T13:42:44Z</time>
      </trkpt>
      <trkpt lat="43.21525" lon="5.45201">
        <ele>201</ele>
        <time>2013-03-14T13:42:48Z</time>
      </trkpt>
      <trkpt lat="43.2152" lon="5.45201">
        <ele>201</ele>
        <time>2013-03-14T13:42:52Z</time>
      </trkpt>
      <trkpt lat="43.21515" lon="5.45201">
        <ele>201</ele>
        <time>2013-03-14T13:42:56Z</time>
      </trkpt>
      <trkpt lat="43.21509" lon="5.45201">
        <ele>201</ele>
        <time>2013-03-14T13:43:00Z</time>
      </trkpt>
      <trkpt lat="43.21504" lon="5.45202">
        <ele>201</ele>
        <time>2013-03-14T13:43:04Z</time>
      </trkpt>
      <trkpt lat="43.21498" lon="5.45205">
        <ele>201</ele>
        <time>2013-03-14T13:43:08Z</time>
      </trkpt>
      <trkpt lat="43.21493" lon="5.45209">
        <ele>200</ele>
        <time>2013-03-14T13:43:12Z</time>
      </trkpt>
      <trkpt lat="43.21489" lon="5.45211">
        <ele>200</ele>
        <time>2013-03-14T13:43:15Z</time>
      </trkpt>
      <trkpt lat="43.21484" lon="5.45216">
        <ele>201</ele>
        <time>2013-03-14T13:43:19Z</time>
      </trkpt>
      <trkpt lat="43.21479" lon="5.4522">
        <ele>201</ele>
        <time>2013-03-14T13:43:23Z</time>
      </trkpt>
      <trkpt lat="43.21475" lon="5.45224">
        <ele>200</ele>
        <time>2013-03-14T13:43:27Z</time>
      </trkpt>
      <trkpt lat="43.21471" lon="5.45228">
        <ele>199</ele>
        <time>2013-03-14T13:43:31Z</time>
      </trkpt>
      <trkpt lat="43.21468" lon="5.45233">
        <ele>199</ele>
        <time>2013-03-14T13:43:39Z</time>
      </trkpt>
      <trkpt lat="43.21465" lon="5.45239">
        <ele>199</ele>
        <time>2013-03-14T13:43:45Z</time>
      </trkpt>
      <trkpt lat="43.21463" lon="5.45246">
        <ele>198</ele>
        <time>2013-03-14T13:43:50Z</time>
      </trkpt>
      <trkpt lat="43.2146" lon="5.45251">
        <ele>197</ele>
        <time>2013-03-14T13:43:54Z</time>
      </trkpt>
      <trkpt lat="43.21455" lon="5.45255">
        <ele>196</ele>
        <time>2013-03-14T13:43:58Z</time>
      </trkpt>
      <trkpt lat="43.21452" lon="5.45259">
        <ele>195</ele>
        <time>2013-03-14T13:44:02Z</time>
      </trkpt>
      <trkpt lat="43.21449" lon="5.45266">
        <ele>195</ele>
        <time>2013-03-14T13:44:07Z</time>
      </trkpt>
      <trkpt lat="43.21448" lon="5.45272">
        <ele>194</ele>
        <time>2013-03-14T13:44:12Z</time>
      </trkpt>
      <trkpt lat="43.21448" lon="5.45278">
        <ele>194</ele>
        <time>2013-03-14T13:44:16Z</time>
      </trkpt>
      <trkpt lat="43.21447" lon="5.45285">
        <ele>193</ele>
        <time>2013-03-14T13:44:20Z</time>
      </trkpt>
      <trkpt lat="43.21447" lon="5.45291">
        <ele>194</ele>
        <time>2013-03-14T13:44:25Z</time>
      </trkpt>
      <trkpt lat="43.21447" lon="5.45293">
        <ele>199</ele>
        <time>2013-03-14T13:45:37Z</time>
      </trkpt>
      <trkpt lat="43.21448" lon="5.453">
        <ele>199</ele>
        <time>2013-03-14T13:45:44Z</time>
      </trkpt>
      <trkpt lat="43.21452" lon="5.45305">
        <ele>198</ele>
        <time>2013-03-14T13:46:25Z</time>
      </trkpt>
      <trkpt lat="43.21454" lon="5.45312">
        <ele>199</ele>
        <time>2013-03-14T13:46:30Z</time>
      </trkpt>
      <trkpt lat="43.21455" lon="5.4532">
        <ele>199</ele>
        <time>2013-03-14T13:46:35Z</time>
      </trkpt>
      <trkpt lat="43.21456" lon="5.45327">
        <ele>199</ele>
        <time>2013-03-14T13:46:40Z</time>
      </trkpt>
      <trkpt lat="43.21458" lon="5.45334">
        <ele>199</ele>
        <time>2013-03-14T13:46:45Z</time>
      </trkpt>
      <trkpt lat="43.2146" lon="5.4534">
        <ele>200</ele>
        <time>2013-03-14T13:46:49Z</time>
      </trkpt>
      <trkpt lat="43.21462" lon="5.45346">
        <ele>200</ele>
        <time>2013-03-14T13:46:53Z</time>
      </trkpt>
      <trkpt lat="43.21466" lon="5.45358">
        <ele>198</ele>
        <time>2013-03-14T13:47:00Z</time>
      </trkpt>
      <trkpt lat="43.21467" lon="5.45366">
        <ele>196</ele>
        <time>2013-03-14T13:47:04Z</time>
      </trkpt>
      <trkpt lat="43.21468" lon="5.45373">
        <ele>195</ele>
        <time>2013-03-14T13:47:08Z</time>
      </trkpt>
      <trkpt lat="43.2147" lon="5.4538">
        <ele>194</ele>
        <time>2013-03-14T13:47:12Z</time>
      </trkpt>
      <trkpt lat="43.2147" lon="5.45386">
        <ele>194</ele>
        <time>2013-03-14T13:47:16Z</time>
      </trkpt>
      <trkpt lat="43.21467" lon="5.45391">
        <ele>192</ele>
        <time>2013-03-14T13:47:21Z</time>
      </trkpt>
      <trkpt lat="43.21464" lon="5.45397">
        <ele>191</ele>
        <time>2013-03-14T13:47:25Z</time>
      </trkpt>
      <trkpt lat="43.21463" lon="5.45404">
        <ele>190</ele>
        <time>2013-03-14T13:47:29Z</time>
      </trkpt>
      <trkpt lat="43.21459" lon="5.4541">
        <ele>190</ele>
        <time>2013-03-14T13:47:34Z</time>
      </trkpt>
      <trkpt lat="43.21456" lon="5.45415">
        <ele>189</ele>
        <time>2013-03-14T13:47:38Z</time>
      </trkpt>
      <trkpt lat="43.21454" lon="5.45421">
        <ele>188</ele>
        <time>2013-03-14T13:47:42Z</time>
      </trkpt>
      <trkpt lat="43.21453" lon="5.45427">
        <ele>188</ele>
        <time>2013-03-14T13:47:46Z</time>
      </trkpt>
      <trkpt lat="43.2145" lon="5.45432">
        <ele>188</ele>
        <time>2013-03-14T13:47:50Z</time>
      </trkpt>
      <trkpt lat="43.21448" lon="5.45439">
        <ele>188</ele>
        <time>2013-03-14T13:47:54Z</time>
      </trkpt>
      <trkpt lat="43.21447" lon="5.45446">
        <ele>188</ele>
        <time>2013-03-14T13:47:58Z</time>
      </trkpt>
      <trkpt lat="43.21446" lon="5.45454">
        <ele>187</ele>
        <time>2013-03-14T13:48:02Z</time>
      </trkpt>
      <trkpt lat="43.21443" lon="5.45461">
        <ele>186</ele>
        <time>2013-03-14T13:48:06Z</time>
      </trkpt>
      <trkpt lat="43.2144" lon="5.45466">
        <ele>186</ele>
        <time>2013-03-14T13:48:10Z</time>
      </trkpt>
      <trkpt lat="43.21438" lon="5.45473">
        <ele>185</ele>
        <time>2013-03-14T13:48:15Z</time>
      </trkpt>
      <trkpt lat="43.21436" lon="5.4548">
        <ele>184</ele>
        <time>2013-03-14T13:48:20Z</time>
      </trkpt>
      <trkpt lat="43.21433" lon="5.45487">
        <ele>184</ele>
        <time>2013-03-14T13:48:25Z</time>
      </trkpt>
      <trkpt lat="43.21431" lon="5.45492">
        <ele>184</ele>
        <time>2013-03-14T13:48:29Z</time>
      </trkpt>
      <trkpt lat="43.2143" lon="5.45499">
        <ele>184</ele>
        <time>2013-03-14T13:48:34Z</time>
      </trkpt>
      <trkpt lat="43.2143" lon="5.45506">
        <ele>185</ele>
        <time>2013-03-14T13:48:40Z</time>
      </trkpt>
      <trkpt lat="43.21428" lon="5.45512">
        <ele>185</ele>
        <time>2013-03-14T13:48:45Z</time>
      </trkpt>
      <trkpt lat="43.21426" lon="5.45519">
        <ele>185</ele>
        <time>2013-03-14T13:48:50Z</time>
      </trkpt>
      <trkpt lat="43.21426" lon="5.45526">
        <ele>185</ele>
        <time>2013-03-14T13:48:56Z</time>
      </trkpt>
      <trkpt lat="43.21426" lon="5.45533">
        <ele>184</ele>
        <time>2013-03-14T13:49:02Z</time>
      </trkpt>
      <trkpt lat="43.21425" lon="5.4554">
        <ele>184</ele>
        <time>2013-03-14T13:49:08Z</time>
      </trkpt>
      <trkpt lat="43.21426" lon="5.45547">
        <ele>183</ele>
        <time>2013-03-14T13:49:13Z</time>
      </trkpt>
      <trkpt lat="43.21426" lon="5.45553">
        <ele>181</ele>
        <time>2013-03-14T13:49:18Z</time>
      </trkpt>
      <trkpt lat="43.21426" lon="5.4556">
        <ele>180</ele>
        <time>2013-03-14T13:49:22Z</time>
      </trkpt>
      <trkpt lat="43.21427" lon="5.45567">
        <ele>179</ele>
        <time>2013-03-14T13:49:26Z</time>
      </trkpt>
      <trkpt lat="43.21429" lon="5.45573">
        <ele>178</ele>
        <time>2013-03-14T13:49:31Z</time>
      </trkpt>
      <trkpt lat="43.2143" lon="5.45579">
        <ele>178</ele>
        <time>2013-03-14T13:49:35Z</time>
      </trkpt>
      <trkpt lat="43.21429" lon="5.45585">
        <ele>177</ele>
        <time>2013-03-14T13:49:38Z</time>
      </trkpt>
      <trkpt lat="43.21428" lon="5.45592">
        <ele>176</ele>
        <time>2013-03-14T13:49:42Z</time>
      </trkpt>
      <trkpt lat="43.21424" lon="5.45585">
        <ele>176</ele>
        <time>2013-03-14T13:49:52Z</time>
      </trkpt>
      <trkpt lat="43.21422" lon="5.45579">
        <ele>176</ele>
        <time>2013-03-14T13:49:57Z</time>
      </trkpt>
      <trkpt lat="43.2142" lon="5.45572">
        <ele>175</ele>
        <time>2013-03-14T13:50:01Z</time>
      </trkpt>
      <trkpt lat="43.21417" lon="5.45566">
        <ele>174</ele>
        <time>2013-03-14T13:50:06Z</time>
      </trkpt>
      <trkpt lat="43.21415" lon="5.4556">
        <ele>173</ele>
        <time>2013-03-14T13:50:10Z</time>
      </trkpt>
      <trkpt lat="43.21413" lon="5.45553">
        <ele>171</ele>
        <time>2013-03-14T13:50:14Z</time>
      </trkpt>
      <trkpt lat="43.21411" lon="5.45548">
        <ele>170</ele>
        <time>2013-03-14T13:50:18Z</time>
      </trkpt>
      <trkpt lat="43.21407" lon="5.45542">
        <ele>167</ele>
        <time>2013-03-14T13:50:22Z</time>
      </trkpt>
      <trkpt lat="43.21403" lon="5.45541">
        <ele>165</ele>
        <time>2013-03-14T13:50:27Z</time>
      </trkpt>
      <trkpt lat="43.21401" lon="5.45548">
        <ele>165</ele>
        <time>2013-03-14T13:50:31Z</time>
      </trkpt>
      <trkpt lat="43.21404" lon="5.45554">
        <ele>164</ele>
        <time>2013-03-14T13:50:35Z</time>
      </trkpt>
      <trkpt lat="43.21405" lon="5.45561">
        <ele>165</ele>
        <time>2013-03-14T13:50:39Z</time>
      </trkpt>
      <trkpt lat="43.21404" lon="5.45568">
        <ele>165</ele>
        <time>2013-03-14T13:50:43Z</time>
      </trkpt>
      <trkpt lat="43.21404" lon="5.45574">
        <ele>165</ele>
        <time>2013-03-14T13:50:46Z</time>
      </trkpt>
      <trkpt lat="43.21404" lon="5.4558">
        <ele>164</ele>
        <time>2013-03-14T13:50:49Z</time>
      </trkpt>
      <trkpt lat="43.21405" lon="5.45588">
        <ele>164</ele>
        <time>2013-03-14T13:50:54Z</time>
      </trkpt>
      <trkpt lat="43.21407" lon="5.45594">
        <ele>164</ele>
        <time>2013-03-14T13:50:58Z</time>
      </trkpt>
      <trkpt lat="43.2141" lon="5.45599">
        <ele>164</ele>
        <time>2013-03-14T13:51:02Z</time>
      </trkpt>
      <trkpt lat="43.21412" lon="5.45605">
        <ele>163</ele>
        <time>2013-03-14T13:51:06Z</time>
      </trkpt>
      <trkpt lat="43.21413" lon="5.45612">
        <ele>163</ele>
        <time>2013-03-14T13:51:10Z</time>
      </trkpt>
      <trkpt lat="43.21413" lon="5.45618">
        <ele>162</ele>
        <time>2013-03-14T13:51:17Z</time>
      </trkpt>
      <trkpt lat="43.21413" lon="5.45624">
        <ele>160</ele>
        <time>2013-03-14T13:51:20Z</time>
      </trkpt>
      <trkpt lat="43.21414" lon="5.45631">
        <ele>158</ele>
        <time>2013-03-14T13:51:24Z</time>
      </trkpt>
      <trkpt lat="43.21415" lon="5.45639">
        <ele>156</ele>
        <time>2013-03-14T13:51:28Z</time>
      </trkpt>
      <trkpt lat="43.21417" lon="5.45645">
        <ele>155</ele>
        <time>2013-03-14T13:51:34Z</time>
      </trkpt>
      <trkpt lat="43.21417" lon="5.45652">
        <ele>156</ele>
        <time>2013-03-14T13:51:43Z</time>
      </trkpt>
      <trkpt lat="43.21417" lon="5.45658">
        <ele>155</ele>
        <time>2013-03-14T13:51:49Z</time>
      </trkpt>
      <trkpt lat="43.21418" lon="5.45665">
        <ele>154</ele>
        <time>2013-03-14T13:51:55Z</time>
      </trkpt>
      <trkpt lat="43.21416" lon="5.45672">
        <ele>153</ele>
        <time>2013-03-14T13:52:01Z</time>
      </trkpt>
      <trkpt lat="43.21412" lon="5.45675">
        <ele>153</ele>
        <time>2013-03-14T13:52:06Z</time>
      </trkpt>
      <trkpt lat="43.21408" lon="5.45679">
        <ele>153</ele>
        <time>2013-03-14T13:52:12Z</time>
      </trkpt>
      <trkpt lat="43.21404" lon="5.45683">
        <ele>153</ele>
        <time>2013-03-14T13:52:18Z</time>
      </trkpt>
      <trkpt lat="43.21399" lon="5.45686">
        <ele>153</ele>
        <time>2013-03-14T13:52:23Z</time>
      </trkpt>
      <trkpt lat="43.21395" lon="5.45688">
        <ele>153</ele>
        <time>2013-03-14T13:52:28Z</time>
      </trkpt>
      <trkpt lat="43.2139" lon="5.4569">
        <ele>152</ele>
        <time>2013-03-14T13:52:33Z</time>
      </trkpt>
      <trkpt lat="43.21376" lon="5.45696">
        <ele>145</ele>
        <time>2013-03-14T13:52:50Z</time>
      </trkpt>
      <trkpt lat="43.21373" lon="5.45702">
        <ele>143</ele>
        <time>2013-03-14T13:52:56Z</time>
      </trkpt>
      <trkpt lat="43.21371" lon="5.45708">
        <ele>142</ele>
        <time>2013-03-14T13:53:01Z</time>
      </trkpt>
      <trkpt lat="43.21367" lon="5.45712">
        <ele>142</ele>
        <time>2013-03-14T13:53:05Z</time>
      </trkpt>
      <trkpt lat="43.21366" lon="5.45719">
        <ele>142</ele>
        <time>2013-03-14T13:53:10Z</time>
      </trkpt>
      <trkpt lat="43.21363" lon="5.45724">
        <ele>142</ele>
        <time>2013-03-14T13:53:14Z</time>
      </trkpt>
      <trkpt lat="43.21358" lon="5.4573">
        <ele>143</ele>
        <time>2013-03-14T13:53:19Z</time>
      </trkpt>
      <trkpt lat="43.21355" lon="5.45734">
        <ele>144</ele>
        <time>2013-03-14T13:53:23Z</time>
      </trkpt>
      <trkpt lat="43.21352" lon="5.45741">
        <ele>144</ele>
        <time>2013-03-14T13:53:28Z</time>
      </trkpt>
      <trkpt lat="43.21352" lon="5.45747">
        <ele>143</ele>
        <time>2013-03-14T13:53:34Z</time>
      </trkpt>
      <trkpt lat="43.21351" lon="5.45754">
        <ele>142</ele>
        <time>2013-03-14T13:53:40Z</time>
      </trkpt>
      <trkpt lat="43.2135" lon="5.4576">
        <ele>141</ele>
        <time>2013-03-14T13:53:47Z</time>
      </trkpt>
      <trkpt lat="43.21348" lon="5.45766">
        <ele>139</ele>
        <time>2013-03-14T13:53:56Z</time>
      </trkpt>
      <trkpt lat="43.21345" lon="5.45771">
        <ele>136</ele>
        <time>2013-03-14T13:54:05Z</time>
      </trkpt>
      <trkpt lat="43.21346" lon="5.45777">
        <ele>135</ele>
        <time>2013-03-14T13:54:11Z</time>
      </trkpt>
      <trkpt lat="43.21347" lon="5.45782">
        <ele>133</ele>
        <time>2013-03-14T13:54:19Z</time>
      </trkpt>
      <trkpt lat="43.21342" lon="5.45781">
        <ele>131</ele>
        <time>2013-03-14T13:54:26Z</time>
      </trkpt>
      <trkpt lat="43.21339" lon="5.45785">
        <ele>130</ele>
        <time>2013-03-14T13:54:38Z</time>
      </trkpt>
      <trkpt lat="43.21341" lon="5.45791">
        <ele>129</ele>
        <time>2013-03-14T13:54:42Z</time>
      </trkpt>
      <trkpt lat="43.21342" lon="5.45797">
        <ele>128</ele>
        <time>2013-03-14T13:54:45Z</time>
      </trkpt>
      <trkpt lat="43.21341" lon="5.45803">
        <ele>126</ele>
        <time>2013-03-14T13:54:50Z</time>
      </trkpt>
      <trkpt lat="43.21336" lon="5.45806">
        <ele>126</ele>
        <time>2013-03-14T13:54:55Z</time>
      </trkpt>
      <trkpt lat="43.21331" lon="5.45811">
        <ele>124</ele>
        <time>2013-03-14T13:55:01Z</time>
      </trkpt>
      <trkpt lat="43.21329" lon="5.45818">
        <ele>122</ele>
        <time>2013-03-14T13:55:07Z</time>
      </trkpt>
      <trkpt lat="43.21325" lon="5.45822">
        <ele>122</ele>
        <time>2013-03-14T13:55:13Z</time>
      </trkpt>
      <trkpt lat="43.21322" lon="5.45827">
        <ele>123</ele>
        <time>2013-03-14T13:55:18Z</time>
      </trkpt>
      <trkpt lat="43.21319" lon="5.45833">
        <ele>122</ele>
        <time>2013-03-14T13:55:25Z</time>
      </trkpt>
      <trkpt lat="43.21315" lon="5.45838">
        <ele>122</ele>
        <time>2013-03-14T13:55:31Z</time>
      </trkpt>
      <trkpt lat="43.21314" lon="5.45844">
        <ele>122</ele>
        <time>2013-03-14T13:55:36Z</time>
      </trkpt>
      <trkpt lat="43.21311" lon="5.4585">
        <ele>122</ele>
        <time>2013-03-14T13:55:41Z</time>
      </trkpt>
      <trkpt lat="43.21309" lon="5.45856">
        <ele>122</ele>
        <time>2013-03-14T13:55:45Z</time>
      </trkpt>
      <trkpt lat="43.21307" lon="5.45862">
        <ele>123</ele>
        <time>2013-03-14T13:55:49Z</time>
      </trkpt>
      <trkpt lat="43.21307" lon="5.45869">
        <ele>123</ele>
        <time>2013-03-14T13:55:54Z</time>
      </trkpt>
      <trkpt lat="43.21307" lon="5.45877">
        <ele>123</ele>
        <time>2013-03-14T13:56:00Z</time>
      </trkpt>
      <trkpt lat="43.21304" lon="5.45883">
        <ele>122</ele>
        <time>2013-03-14T13:56:05Z</time>
      </trkpt>
      <trkpt lat="43.21303" lon="5.4589">
        <ele>120</ele>
        <time>2013-03-14T13:56:09Z</time>
      </trkpt>
      <trkpt lat="43.21299" lon="5.45895">
        <ele>117</ele>
        <time>2013-03-14T13:56:13Z</time>
      </trkpt>
      <trkpt lat="43.21296" lon="5.45901">
        <ele>115</ele>
        <time>2013-03-14T13:56:17Z</time>
      </trkpt>
      <trkpt lat="43.21291" lon="5.45904">
        <ele>114</ele>
        <time>2013-03-14T13:56:21Z</time>
      </trkpt>
      <trkpt lat="43.21288" lon="5.45909">
        <ele>114</ele>
        <time>2013-03-14T13:56:26Z</time>
      </trkpt>
      <trkpt lat="43.21286" lon="5.45915">
        <ele>114</ele>
        <time>2013-03-14T13:56:31Z</time>
      </trkpt>
      <trkpt lat="43.21284" lon="5.45921">
        <ele>114</ele>
        <time>2013-03-14T13:56:35Z</time>
      </trkpt>
      <trkpt lat="43.21282" lon="5.45927">
        <ele>114</ele>
        <time>2013-03-14T13:56:39Z</time>
      </trkpt>
      <trkpt lat="43.21281" lon="5.45933">
        <ele>115</ele>
        <time>2013-03-14T13:56:43Z</time>
      </trkpt>
      <trkpt lat="43.2128" lon="5.45941">
        <ele>115</ele>
        <time>2013-03-14T13:56:47Z</time>
      </trkpt>
      <trkpt lat="43.21276" lon="5.45946">
        <ele>116</ele>
        <time>2013-03-14T13:56:51Z</time>
      </trkpt>
      <trkpt lat="43.21273" lon="5.4595">
        <ele>116</ele>
        <time>2013-03-14T13:56:55Z</time>
      </trkpt>
      <trkpt lat="43.21269" lon="5.45955">
        <ele>116</ele>
        <time>2013-03-14T13:56:59Z</time>
      </trkpt>
      <trkpt lat="43.21265" lon="5.45957">
        <ele>115</ele>
        <time>2013-03-14T13:57:03Z</time>
      </trkpt>
      <trkpt lat="43.21259" lon="5.45958">
        <ele>115</ele>
        <time>2013-03-14T13:57:08Z</time>
      </trkpt>
      <trkpt lat="43.21255" lon="5.4596">
        <ele>114</ele>
        <time>2013-03-14T13:57:12Z</time>
      </trkpt>
      <trkpt lat="43.21253" lon="5.45966">
        <ele>114</ele>
        <time>2013-03-14T13:57:17Z</time>
      </trkpt>
      <trkpt lat="43.21252" lon="5.45973">
        <ele>114</ele>
        <time>2013-03-14T13:57:22Z</time>
      </trkpt>
      <trkpt lat="43.21252" lon="5.4598">
        <ele>114</ele>
        <time>2013-03-14T13:57:28Z</time>
      </trkpt>
      <trkpt lat="43.21248" lon="5.45987">
        <ele>112</ele>
        <time>2013-03-14T13:58:09Z</time>
      </trkpt>
      <trkpt lat="43.21243" lon="5.45989">
        <ele>111</ele>
        <time>2013-03-14T13:58:14Z</time>
      </trkpt>
      <trkpt lat="43.21237" lon="5.4599">
        <ele>109</ele>
        <time>2013-03-14T13:58:20Z</time>
      </trkpt>
      <trkpt lat="43.21231" lon="5.45992">
        <ele>107</ele>
        <time>2013-03-14T13:58:25Z</time>
      </trkpt>
      <trkpt lat="43.21227" lon="5.45993">
        <ele>107</ele>
        <time>2013-03-14T13:58:29Z</time>
      </trkpt>
      <trkpt lat="43.21224" lon="5.45992">
        <ele>107</ele>
        <time>2013-03-14T13:58:37Z</time>
      </trkpt>
      <trkpt lat="43.2122" lon="5.45995">
        <ele>107</ele>
        <time>2013-03-14T13:59:28Z</time>
      </trkpt>
      <trkpt lat="43.21215" lon="5.45998">
        <ele>106</ele>
        <time>2013-03-14T13:59:35Z</time>
      </trkpt>
      <trkpt lat="43.21211" lon="5.46002">
        <ele>104</ele>
        <time>2013-03-14T13:59:41Z</time>
      </trkpt>
      <trkpt lat="43.21207" lon="5.46008">
        <ele>102</ele>
        <time>2013-03-14T13:59:46Z</time>
      </trkpt>
      <trkpt lat="43.21204" lon="5.46014">
        <ele>101</ele>
        <time>2013-03-14T13:59:51Z</time>
      </trkpt>
      <trkpt lat="43.21203" lon="5.46018">
        <ele>100</ele>
        <time>2013-03-14T13:59:58Z</time>
      </trkpt>
      <trkpt lat="43.21199" lon="5.46016">
        <ele>100</ele>
        <time>2013-03-14T14:00:16Z</time>
      </trkpt>
      <trkpt lat="43.21196" lon="5.46019">
        <ele>102</ele>
        <time>2013-03-14T14:00:50Z</time>
      </trkpt>
      <trkpt lat="43.21192" lon="5.46023">
        <ele>103</ele>
        <time>2013-03-14T14:00:55Z</time>
      </trkpt>
      <trkpt lat="43.21188" lon="5.46027">
        <ele>103</ele>
        <time>2013-03-14T14:00:59Z</time>
      </trkpt>
      <trkpt lat="43.21184" lon="5.46029">
        <ele>103</ele>
        <time>2013-03-14T14:01:04Z</time>
      </trkpt>
      <trkpt lat="43.21181" lon="5.46033">
        <ele>101</ele>
        <time>2013-03-14T14:01:36Z</time>
      </trkpt>
      <trkpt lat="43.21178" lon="5.46039">
        <ele>99</ele>
        <time>2013-03-14T14:01:39Z</time>
      </trkpt>
      <trkpt lat="43.21175" lon="5.46044">
        <ele>97</ele>
        <time>2013-03-14T14:01:43Z</time>
      </trkpt>
      <trkpt lat="43.21171" lon="5.46049">
        <ele>96</ele>
        <time>2013-03-14T14:01:47Z</time>
      </trkpt>
      <trkpt lat="43.21166" lon="5.46052">
        <ele>96</ele>
        <time>2013-03-14T14:01:51Z</time>
      </trkpt>
      <trkpt lat="43.21162" lon="5.46056">
        <ele>97</ele>
        <time>2013-03-14T14:01:55Z</time>
      </trkpt>
      <trkpt lat="43.21159" lon="5.46061">
        <ele>98</ele>
        <time>2013-03-14T14:01:59Z</time>
      </trkpt>
      <trkpt lat="43.21157" lon="5.46066">
        <ele>99</ele>
        <time>2013-03-14T14:02:14Z</time>
      </trkpt>
      <trkpt lat="43.21154" lon="5.46072">
        <ele>98</ele>
        <time>2013-03-14T14:02:21Z</time>
      </trkpt>
      <trkpt lat="43.21151" lon="5.46077">
        <ele>97</ele>
        <time>2013-03-14T14:02:25Z</time>
      </trkpt>
      <trkpt lat="43.21148" lon="5.46082">
        <ele>97</ele>
        <time>2013-03-14T14:02:30Z</time>
      </trkpt>
      <trkpt lat="43.21149" lon="5.46083">
        <ele>100</ele>
        <time>2013-03-14T14:03:18Z</time>
      </trkpt>
      <trkpt lat="43.21149" lon="5.4609">
        <ele>100</ele>
        <time>2013-03-14T14:03:23Z</time>
      </trkpt>
      <trkpt lat="43.21146" lon="5.46096">
        <ele>100</ele>
        <time>2013-03-14T14:03:27Z</time>
      </trkpt>
      <trkpt lat="43.21143" lon="5.46101">
        <ele>100</ele>
        <time>2013-03-14T14:03:32Z</time>
      </trkpt>
      <trkpt lat="43.21143" lon="5.46108">
        <ele>100</ele>
        <time>2013-03-14T14:03:37Z</time>
      </trkpt>
      <trkpt lat="43.21147" lon="5.46114">
        <ele>100</ele>
        <time>2013-03-14T14:03:41Z</time>
      </trkpt>
      <trkpt lat="43.21148" lon="5.4612">
        <ele>99</ele>
        <time>2013-03-14T14:03:45Z</time>
      </trkpt>
      <trkpt lat="43.21144" lon="5.46131">
        <ele>99</ele>
        <time>2013-03-14T14:03:52Z</time>
      </trkpt>
      <trkpt lat="43.21134" lon="5.46137">
        <ele>100</ele>
        <time>2013-03-14T14:04:00Z</time>
      </trkpt>
      <trkpt lat="43.21129" lon="5.4614">
        <ele>100</ele>
        <time>2013-03-14T14:04:06Z</time>
      </trkpt>
      <trkpt lat="43.21124" lon="5.46143">
        <ele>100</ele>
        <time>2013-03-14T14:04:11Z</time>
      </trkpt>
      <trkpt lat="43.21122" lon="5.46142">
        <ele>102</ele>
        <time>2013-03-14T14:04:38Z</time>
      </trkpt>
      <trkpt lat="43.2112" lon="5.46149">
        <ele>104</ele>
        <time>2013-03-14T14:04:56Z</time>
      </trkpt>
      <trkpt lat="43.21119" lon="5.46157">
        <ele>104</ele>
        <time>2013-03-14T14:04:59Z</time>
      </trkpt>
      <trkpt lat="43.21118" lon="5.46164">
        <ele>104</ele>
        <time>2013-03-14T14:05:02Z</time>
      </trkpt>
      <trkpt lat="43.2112" lon="5.46171">
        <ele>104</ele>
        <time>2013-03-14T14:05:05Z</time>
      </trkpt>
      <trkpt lat="43.2112" lon="5.46178">
        <ele>104</ele>
        <time>2013-03-14T14:05:08Z</time>
      </trkpt>
      <trkpt lat="43.21119" lon="5.46185">
        <ele>103</ele>
        <time>2013-03-14T14:05:11Z</time>
      </trkpt>
      <trkpt lat="43.2112" lon="5.46199">
        <ele>103</ele>
        <time>2013-03-14T14:05:15Z</time>
      </trkpt>
      <trkpt lat="43.21119" lon="5.46205">
        <ele>103</ele>
        <time>2013-03-14T14:05:17Z</time>
      </trkpt>
      <trkpt lat="43.21119" lon="5.46215">
        <ele>103</ele>
        <time>2013-03-14T14:05:20Z</time>
      </trkpt>
      <trkpt lat="43.21117" lon="5.46222">
        <ele>102</ele>
        <time>2013-03-14T14:05:24Z</time>
      </trkpt>
      <trkpt lat="43.21112" lon="5.4623">
        <ele>101</ele>
        <time>2013-03-14T14:05:31Z</time>
      </trkpt>
      <trkpt lat="43.21107" lon="5.46234">
        <ele>101</ele>
        <time>2013-03-14T14:05:35Z</time>
      </trkpt>
      <trkpt lat="43.21105" lon="5.4624">
        <ele>100</ele>
        <time>2013-03-14T14:05:39Z</time>
      </trkpt>
      <trkpt lat="43.21101" lon="5.46244">
        <ele>100</ele>
        <time>2013-03-14T14:05:43Z</time>
      </trkpt>
      <trkpt lat="43.21099" lon="5.46251">
        <ele>100</ele>
        <time>2013-03-14T14:05:47Z</time>
      </trkpt>
      <trkpt lat="43.21098" lon="5.46258">
        <ele>100</ele>
        <time>2013-03-14T14:05:50Z</time>
      </trkpt>
      <trkpt lat="43.21094" lon="5.46262">
        <ele>100</ele>
        <time>2013-03-14T14:05:53Z</time>
      </trkpt>
      <trkpt lat="43.21089" lon="5.46264">
        <ele>100</ele>
        <time>2013-03-14T14:05:56Z</time>
      </trkpt>
      <trkpt lat="43.21086" lon="5.4627">
        <ele>100</ele>
        <time>2013-03-14T14:06:00Z</time>
      </trkpt>
      <trkpt lat="43.21085" lon="5.46276">
        <ele>99</ele>
        <time>2013-03-14T14:06:04Z</time>
      </trkpt>
      <trkpt lat="43.21078" lon="5.46284">
        <ele>99</ele>
        <time>2013-03-14T14:06:17Z</time>
      </trkpt>
      <trkpt lat="43.21073" lon="5.46289">
        <ele>94</ele>
        <time>2013-03-14T14:06:32Z</time>
      </trkpt>
      <trkpt lat="43.21071" lon="5.46298">
        <ele>89</ele>
        <time>2013-03-14T14:06:45Z</time>
      </trkpt>
      <trkpt lat="43.21066" lon="5.463">
        <ele>86</ele>
        <time>2013-03-14T14:06:53Z</time>
      </trkpt>
      <trkpt lat="43.21056" lon="5.463">
        <ele>84</ele>
        <time>2013-03-14T14:07:06Z</time>
      </trkpt>
      <trkpt lat="43.21054" lon="5.46312">
        <ele>81</ele>
        <time>2013-03-14T14:07:14Z</time>
      </trkpt>
      <trkpt lat="43.21046" lon="5.46324">
        <ele>72</ele>
        <time>2013-03-14T14:07:34Z</time>
      </trkpt>
      <trkpt lat="43.21042" lon="5.46328">
        <ele>72</ele>
        <time>2013-03-14T14:07:41Z</time>
      </trkpt>
      <trkpt lat="43.21038" lon="5.46332">
        <ele>72</ele>
        <time>2013-03-14T14:07:45Z</time>
      </trkpt>
      <trkpt lat="43.21034" lon="5.46336">
        <ele>72</ele>
        <time>2013-03-14T14:07:49Z</time>
      </trkpt>
      <trkpt lat="43.21029" lon="5.46338">
        <ele>72</ele>
        <time>2013-03-14T14:07:53Z</time>
      </trkpt>
      <trkpt lat="43.21026" lon="5.46344">
        <ele>71</ele>
        <time>2013-03-14T14:07:59Z</time>
      </trkpt>
      <trkpt lat="43.21024" lon="5.4635">
        <ele>71</ele>
        <time>2013-03-14T14:08:06Z</time>
      </trkpt>
      <trkpt lat="43.21019" lon="5.46353">
        <ele>69</ele>
        <time>2013-03-14T14:08:13Z</time>
      </trkpt>
      <trkpt lat="43.21014" lon="5.46356">
        <ele>66</ele>
        <time>2013-03-14T14:08:21Z</time>
      </trkpt>
      <trkpt lat="43.21011" lon="5.46361">
        <ele>65</ele>
        <time>2013-03-14T14:08:26Z</time>
      </trkpt>
      <trkpt lat="43.21007" lon="5.46365">
        <ele>63</ele>
        <time>2013-03-14T14:08:30Z</time>
      </trkpt>
      <trkpt lat="43.21003" lon="5.46369">
        <ele>62</ele>
        <time>2013-03-14T14:08:34Z</time>
      </trkpt>
      <trkpt lat="43.20999" lon="5.46374">
        <ele>59</ele>
        <time>2013-03-14T14:08:40Z</time>
      </trkpt>
      <trkpt lat="43.20996" lon="5.46378">
        <ele>59</ele>
        <time>2013-03-14T14:08:44Z</time>
      </trkpt>
      <trkpt lat="43.20991" lon="5.46382">
        <ele>58</ele>
        <time>2013-03-14T14:08:48Z</time>
      </trkpt>
      <trkpt lat="43.20985" lon="5.4638">
        <ele>59</ele>
        <time>2013-03-14T14:08:52Z</time>
      </trkpt>
      <trkpt lat="43.20981" lon="5.46385">
        <ele>59</ele>
        <time>2013-03-14T14:08:57Z</time>
      </trkpt>
      <trkpt lat="43.20977" lon="5.46388">
        <ele>58</ele>
        <time>2013-03-14T14:09:02Z</time>
      </trkpt>
      <trkpt lat="43.20973" lon="5.46392">
        <ele>57</ele>
        <time>2013-03-14T14:09:07Z</time>
      </trkpt>
      <trkpt lat="43.2097" lon="5.46398">
        <ele>57</ele>
        <time>2013-03-14T14:09:12Z</time>
      </trkpt>
      <trkpt lat="43.20971" lon="5.46405">
        <ele>58</ele>
        <time>2013-03-14T14:09:16Z</time>
      </trkpt>
      <trkpt lat="43.20968" lon="5.46411">
        <ele>61</ele>
        <time>2013-03-14T14:09:22Z</time>
      </trkpt>
      <trkpt lat="43.20964" lon="5.46413">
        <ele>63</ele>
        <time>2013-03-14T14:09:26Z</time>
      </trkpt>
      <trkpt lat="43.20962" lon="5.46417">
        <ele>66</ele>
        <time>2013-03-14T14:09:44Z</time>
      </trkpt>
      <trkpt lat="43.20964" lon="5.46424">
        <ele>66</ele>
        <time>2013-03-14T14:09:49Z</time>
      </trkpt>
      <trkpt lat="43.20963" lon="5.46432">
        <ele>65</ele>
        <time>2013-03-14T14:09:55Z</time>
      </trkpt>
      <trkpt lat="43.20964" lon="5.46435">
        <ele>64</ele>
        <time>2013-03-14T14:10:12Z</time>
      </trkpt>
      <trkpt lat="43.20963" lon="5.46441">
        <ele>64</ele>
        <time>2013-03-14T14:10:18Z</time>
      </trkpt>
      <trkpt lat="43.20963" lon="5.46448">
        <ele>63</ele>
        <time>2013-03-14T14:10:27Z</time>
      </trkpt>
      <trkpt lat="43.20959" lon="5.46452">
        <ele>63</ele>
        <time>2013-03-14T14:10:31Z</time>
      </trkpt>
      <trkpt lat="43.20955" lon="5.46459">
        <ele>62</ele>
        <time>2013-03-14T14:10:36Z</time>
      </trkpt>
      <trkpt lat="43.20954" lon="5.46465">
        <ele>62</ele>
        <time>2013-03-14T14:10:40Z</time>
      </trkpt>
      <trkpt lat="43.20952" lon="5.46472">
        <ele>62</ele>
        <time>2013-03-14T14:10:44Z</time>
      </trkpt>
      <trkpt lat="43.20947" lon="5.46474">
        <ele>61</ele>
        <time>2013-03-14T14:10:48Z</time>
      </trkpt>
      <trkpt lat="43.20942" lon="5.46478">
        <ele>60</ele>
        <time>2013-03-14T14:10:53Z</time>
      </trkpt>
      <trkpt lat="43.20941" lon="5.46484">
        <ele>60</ele>
        <time>2013-03-14T14:10:57Z</time>
      </trkpt>
      <trkpt lat="43.20938" lon="5.4649">
        <ele>61</ele>
        <time>2013-03-14T14:11:04Z</time>
      </trkpt>
      <trkpt lat="43.20938" lon="5.46497">
        <ele>60</ele>
        <time>2013-03-14T14:11:09Z</time>
      </trkpt>
      <trkpt lat="43.20939" lon="5.46504">
        <ele>59</ele>
        <time>2013-03-14T14:11:13Z</time>
      </trkpt>
      <trkpt lat="43.20938" lon="5.46511">
        <ele>59</ele>
        <time>2013-03-14T14:11:19Z</time>
      </trkpt>
      <trkpt lat="43.20936" lon="5.46515">
        <ele>61</ele>
        <time>2013-03-14T14:11:38Z</time>
      </trkpt>
      <trkpt lat="43.20937" lon="5.46521">
        <ele>62</ele>
        <time>2013-03-14T14:11:51Z</time>
      </trkpt>
      <trkpt lat="43.20937" lon="5.46528">
        <ele>63</ele>
        <time>2013-03-14T14:11:56Z</time>
      </trkpt>
      <trkpt lat="43.2094" lon="5.46533">
        <ele>63</ele>
        <time>2013-03-14T14:12:00Z</time>
      </trkpt>
      <trkpt lat="43.20938" lon="5.4654">
        <ele>64</ele>
        <time>2013-03-14T14:12:05Z</time>
      </trkpt>
      <trkpt lat="43.20938" lon="5.46546">
        <ele>63</ele>
        <time>2013-03-14T14:12:10Z</time>
      </trkpt>
      <trkpt lat="43.20938" lon="5.46553">
        <ele>63</ele>
        <time>2013-03-14T14:12:18Z</time>
      </trkpt>
      <trkpt lat="43.20937" lon="5.46559">
        <ele>62</ele>
        <time>2013-03-14T14:12:22Z</time>
      </trkpt>
      <trkpt lat="43.20938" lon="5.46567">
        <ele>61</ele>
        <time>2013-03-14T14:12:26Z</time>
      </trkpt>
      <trkpt lat="43.20938" lon="5.46579">
        <ele>61</ele>
        <time>2013-03-14T14:12:33Z</time>
      </trkpt>
      <trkpt lat="43.2094" lon="5.46584">
        <ele>61</ele>
        <time>2013-03-14T14:12:38Z</time>
      </trkpt>
      <trkpt lat="43.20938" lon="5.46591">
        <ele>62</ele>
        <time>2013-03-14T14:12:43Z</time>
      </trkpt>
      <trkpt lat="43.20938" lon="5.46597">
        <ele>64</ele>
        <time>2013-03-14T14:12:48Z</time>
      </trkpt>
      <trkpt lat="43.20936" lon="5.46611">
        <ele>64</ele>
        <time>2013-03-14T14:12:59Z</time>
      </trkpt>
      <trkpt lat="43.20937" lon="5.46623">
        <ele>63</ele>
        <time>2013-03-14T14:13:09Z</time>
      </trkpt>
      <trkpt lat="43.20932" lon="5.46643">
        <ele>62</ele>
        <time>2013-03-14T14:13:33Z</time>
      </trkpt>
      <trkpt lat="43.20937" lon="5.46655">
        <ele>62</ele>
        <time>2013-03-14T14:13:40Z</time>
      </trkpt>
      <trkpt lat="43.20927" lon="5.46657">
        <ele>62</ele>
        <time>2013-03-14T14:14:03Z</time>
      </trkpt>
      <trkpt lat="43.20915" lon="5.46669">
        <ele>66</ele>
        <time>2013-03-14T14:14:36Z</time>
      </trkpt>
      <trkpt lat="43.20918" lon="5.46681">
        <ele>67</ele>
        <time>2013-03-14T14:14:51Z</time>
      </trkpt>
      <trkpt lat="43.20913" lon="5.46698">
        <ele>67</ele>
        <time>2013-03-14T14:15:09Z</time>
      </trkpt>
      <trkpt lat="43.20908" lon="5.46712">
        <ele>67</ele>
        <time>2013-03-14T14:15:37Z</time>
      </trkpt>
      <trkpt lat="43.20913" lon="5.46722">
        <ele>66</ele>
        <time>2013-03-14T14:15:43Z</time>
      </trkpt>
      <trkpt lat="43.20917" lon="5.46733">
        <ele>63</ele>
        <time>2013-03-14T14:15:53Z</time>
      </trkpt>
      <trkpt lat="43.2092" lon="5.46746">
        <ele>62</ele>
        <time>2013-03-14T14:15:59Z</time>
      </trkpt>
      <trkpt lat="43.20919" lon="5.4676">
        <ele>60</ele>
        <time>2013-03-14T14:16:08Z</time>
      </trkpt>
      <trkpt lat="43.20916" lon="5.46769">
        <ele>57</ele>
        <time>2013-03-14T14:16:19Z</time>
      </trkpt>
      <trkpt lat="43.20918" lon="5.46778">
        <ele>54</ele>
        <time>2013-03-14T14:16:26Z</time>
      </trkpt>
      <trkpt lat="43.20921" lon="5.46791">
        <ele>51</ele>
        <time>2013-03-14T14:16:43Z</time>
      </trkpt>
      <trkpt lat="43.20923" lon="5.46803">
        <ele>47</ele>
        <time>2013-03-14T14:16:58Z</time>
      </trkpt>
      <trkpt lat="43.20917" lon="5.46815">
        <ele>42</ele>
        <time>2013-03-14T14:17:14Z</time>
      </trkpt>
      <trkpt lat="43.20915" lon="5.46821">
        <ele>39</ele>
        <time>2013-03-14T14:17:19Z</time>
      </trkpt>
      <trkpt lat="43.20917" lon="5.46827">
        <ele>37</ele>
        <time>2013-03-14T14:17:24Z</time>
      </trkpt>
      <trkpt lat="43.20913" lon="5.4684">
        <ele>35</ele>
        <time>2013-03-14T14:17:34Z</time>
      </trkpt>
      <trkpt lat="43.20914" lon="5.46854">
        <ele>34</ele>
        <time>2013-03-14T14:17:42Z</time>
      </trkpt>
      <trkpt lat="43.20915" lon="5.46861">
        <ele>33</ele>
        <time>2013-03-14T14:17:46Z</time>
      </trkpt>
      <trkpt lat="43.20916" lon="5.46868">
        <ele>32</ele>
        <time>2013-03-14T14:17:49Z</time>
      </trkpt>
      <trkpt lat="43.20915" lon="5.46874">
        <ele>31</ele>
        <time>2013-03-14T14:17:53Z</time>
      </trkpt>
      <trkpt lat="43.20919" lon="5.46879">
        <ele>31</ele>
        <time>2013-03-14T14:17:56Z</time>
      </trkpt>
      <trkpt lat="43.20923" lon="5.46885">
        <ele>31</ele>
        <time>2013-03-14T14:18:00Z</time>
      </trkpt>
      <trkpt lat="43.20923" lon="5.46892">
        <ele>30</ele>
        <time>2013-03-14T14:18:04Z</time>
      </trkpt>
      <trkpt lat="43.20927" lon="5.46896">
        <ele>29</ele>
        <time>2013-03-14T14:18:09Z</time>
      </trkpt>
      <trkpt lat="43.20928" lon="5.46902">
        <ele>28</ele>
        <time>2013-03-14T14:18:18Z</time>
      </trkpt>
      <trkpt lat="43.20929" lon="5.46909">
        <ele>27</ele>
        <time>2013-03-14T14:18:24Z</time>
      </trkpt>
      <trkpt lat="43.20929" lon="5.46917">
        <ele>27</ele>
        <time>2013-03-14T14:18:30Z</time>
      </trkpt>
      <trkpt lat="43.20925" lon="5.46921">
        <ele>27</ele>
        <time>2013-03-14T14:18:35Z</time>
      </trkpt>
      <trkpt lat="43.2092" lon="5.46922">
        <ele>28</ele>
        <time>2013-03-14T14:18:41Z</time>
      </trkpt>
      <trkpt lat="43.20919" lon="5.46927">
        <ele>31</ele>
        <time>2013-03-14T14:18:50Z</time>
      </trkpt>
      <trkpt lat="43.2092" lon="5.46935">
        <ele>32</ele>
        <time>2013-03-14T14:19:04Z</time>
      </trkpt>
      <trkpt lat="43.2092" lon="5.46943">
        <ele>32</ele>
        <time>2013-03-14T14:19:09Z</time>
      </trkpt>
      <trkpt lat="43.20921" lon="5.46949">
        <ele>32</ele>
        <time>2013-03-14T14:19:14Z</time>
      </trkpt>
      <trkpt lat="43.20916" lon="5.46956">
        <ele>32</ele>
        <time>2013-03-14T14:19:28Z</time>
      </trkpt>
      <trkpt lat="43.20918" lon="5.4696">
        <ele>31</ele>
        <time>2013-03-14T14:19:54Z</time>
      </trkpt>
      <trkpt lat="43.20913" lon="5.46968">
        <ele>30</ele>
        <time>2013-03-14T14:21:25Z</time>
      </trkpt>
      <trkpt lat="43.20915" lon="5.46974">
        <ele>31</ele>
        <time>2013-03-14T14:21:34Z</time>
      </trkpt>
      <trkpt lat="43.20915" lon="5.46981">
        <ele>33</ele>
        <time>2013-03-14T14:21:41Z</time>
      </trkpt>
      <trkpt lat="43.20907" lon="5.47004">
        <ele>44</ele>
        <time>2013-03-14T14:22:32Z</time>
      </trkpt>
      <trkpt lat="43.20902" lon="5.46998">
        <ele>53</ele>
        <time>2013-03-14T14:23:57Z</time>
      </trkpt>
      <trkpt lat="43.20894" lon="5.47011">
        <ele>56</ele>
        <time>2013-03-14T14:24:21Z</time>
      </trkpt>
      <trkpt lat="43.20892" lon="5.47018">
        <ele>58</ele>
        <time>2013-03-14T14:24:25Z</time>
      </trkpt>
      <trkpt lat="43.2089" lon="5.47024">
        <ele>62</ele>
        <time>2013-03-14T14:24:31Z</time>
      </trkpt>
      <trkpt lat="43.20886" lon="5.47027">
        <ele>66</ele>
        <time>2013-03-14T14:24:39Z</time>
      </trkpt>
      <trkpt lat="43.20886" lon="5.47034">
        <ele>70</ele>
        <time>2013-03-14T14:24:45Z</time>
      </trkpt>
      <trkpt lat="43.20886" lon="5.47038">
        <ele>73</ele>
        <time>2013-03-14T14:24:53Z</time>
      </trkpt>
      <trkpt lat="43.20882" lon="5.47042">
        <ele>76</ele>
        <time>2013-03-14T14:25:00Z</time>
      </trkpt>
      <trkpt lat="43.20883" lon="5.47042">
        <ele>82</ele>
        <time>2013-03-14T14:25:17Z</time>
      </trkpt>
      <trkpt lat="43.20888" lon="5.47039">
        <ele>89</ele>
        <time>2013-03-14T14:26:07Z</time>
      </trkpt>
      <trkpt lat="43.20897" lon="5.47043">
        <ele>89</ele>
        <time>2013-03-14T14:26:16Z</time>
      </trkpt>
      <trkpt lat="43.20906" lon="5.47044">
        <ele>90</ele>
        <time>2013-03-14T14:26:23Z</time>
      </trkpt>
      <trkpt lat="43.20912" lon="5.47048">
        <ele>91</ele>
        <time>2013-03-14T14:26:30Z</time>
      </trkpt>
      <trkpt lat="43.20916" lon="5.47051">
        <ele>91</ele>
        <time>2013-03-14T14:26:36Z</time>
      </trkpt>
      <trkpt lat="43.20921" lon="5.47054">
        <ele>92</ele>
        <time>2013-03-14T14:26:42Z</time>
      </trkpt>
      <trkpt lat="43.20922" lon="5.47052">
        <ele>96</ele>
        <time>2013-03-14T14:27:03Z</time>
      </trkpt>
      <trkpt lat="43.20925" lon="5.47053">
        <ele>97</ele>
        <time>2013-03-14T14:27:21Z</time>
      </trkpt>
      <trkpt lat="43.20926" lon="5.47056">
        <ele>96</ele>
        <time>2013-03-14T14:27:36Z</time>
      </trkpt>
      <trkpt lat="43.20928" lon="5.47059">
        <ele>96</ele>
        <time>2013-03-14T14:27:47Z</time>
      </trkpt>
      <trkpt lat="43.20928" lon="5.47065">
        <ele>99</ele>
        <time>2013-03-14T14:28:57Z</time>
      </trkpt>
      <trkpt lat="43.20941" lon="5.47062">
        <ele>102</ele>
        <time>2013-03-14T14:29:43Z</time>
      </trkpt>
      <trkpt lat="43.20957" lon="5.47035">
        <ele>102</ele>
        <time>2013-03-14T14:30:13Z</time>
      </trkpt>
      <trkpt lat="43.20957" lon="5.47019">
        <ele>104</ele>
        <time>2013-03-14T14:30:39Z</time>
      </trkpt>
      <trkpt lat="43.20948" lon="5.4703">
        <ele>106</ele>
        <time>2013-03-14T14:30:54Z</time>
      </trkpt>
      <trkpt lat="43.20942" lon="5.47041">
        <ele>109</ele>
        <time>2013-03-14T14:31:11Z</time>
      </trkpt>
      <trkpt lat="43.20933" lon="5.47042">
        <ele>115</ele>
        <time>2013-03-14T14:31:23Z</time>
      </trkpt>
      <trkpt lat="43.20928" lon="5.4705">
        <ele>123</ele>
        <time>2013-03-14T14:31:47Z</time>
      </trkpt>
      <trkpt lat="43.2093" lon="5.47064">
        <ele>123</ele>
        <time>2013-03-14T14:32:09Z</time>
      </trkpt>
      <trkpt lat="43.20932" lon="5.47073">
        <ele>121</ele>
        <time>2013-03-14T14:32:25Z</time>
      </trkpt>
      <trkpt lat="43.20943" lon="5.47077">
        <ele>118</ele>
        <time>2013-03-14T14:32:50Z</time>
      </trkpt>
      <trkpt lat="43.20948" lon="5.4708">
        <ele>115</ele>
        <time>2013-03-14T14:33:02Z</time>
      </trkpt>
      <trkpt lat="43.20961" lon="5.4708">
        <ele>116</ele>
        <time>2013-03-14T14:33:33Z</time>
      </trkpt>
      <trkpt lat="43.2097" lon="5.47079">
        <ele>116</ele>
        <time>2013-03-14T14:33:51Z</time>
      </trkpt>
      <trkpt lat="43.20979" lon="5.47079">
        <ele>117</ele>
        <time>2013-03-14T14:34:04Z</time>
      </trkpt>
      <trkpt lat="43.20984" lon="5.47079">
        <ele>118</ele>
        <time>2013-03-14T14:34:15Z</time>
      </trkpt>
      <trkpt lat="43.20987" lon="5.47081">
        <ele>119</ele>
        <time>2013-03-14T14:34:24Z</time>
      </trkpt>
      <trkpt lat="43.20992" lon="5.4708">
        <ele>120</ele>
        <time>2013-03-14T14:34:33Z</time>
      </trkpt>
      <trkpt lat="43.21002" lon="5.47083">
        <ele>122</ele>
        <time>2013-03-14T14:35:03Z</time>
      </trkpt>
      <trkpt lat="43.21013" lon="5.47078">
        <ele>129</ele>
        <time>2013-03-14T14:35:35Z</time>
      </trkpt>
      <trkpt lat="43.21014" lon="5.47073">
        <ele>139</ele>
        <time>2013-03-14T14:35:55Z</time>
      </trkpt>
      <trkpt lat="43.21018" lon="5.47077">
        <ele>142</ele>
        <time>2013-03-14T14:36:04Z</time>
      </trkpt>
      <trkpt lat="43.21023" lon="5.47078">
        <ele>143</ele>
        <time>2013-03-14T14:36:13Z</time>
      </trkpt>
      <trkpt lat="43.21027" lon="5.47074">
        <ele>143</ele>
        <time>2013-03-14T14:36:19Z</time>
      </trkpt>
      <trkpt lat="43.21031" lon="5.4707">
        <ele>143</ele>
        <time>2013-03-14T14:36:26Z</time>
      </trkpt>
      <trkpt lat="43.21035" lon="5.47064">
        <ele>142</ele>
        <time>2013-03-14T14:36:34Z</time>
      </trkpt>
      <trkpt lat="43.21041" lon="5.47063">
        <ele>143</ele>
        <time>2013-03-14T14:36:47Z</time>
      </trkpt>
      <trkpt lat="43.21049" lon="5.47057">
        <ele>144</ele>
        <time>2013-03-14T14:37:04Z</time>
      </trkpt>
      <trkpt lat="43.21055" lon="5.47045">
        <ele>154</ele>
        <time>2013-03-14T14:37:32Z</time>
      </trkpt>
      <trkpt lat="43.21053" lon="5.4704">
        <ele>159</ele>
        <time>2013-03-14T14:38:16Z</time>
      </trkpt>
      <trkpt lat="43.21054" lon="5.47036">
        <ele>165</ele>
        <time>2013-03-14T14:39:49Z</time>
      </trkpt>
      <trkpt lat="43.2106" lon="5.47036">
        <ele>165</ele>
        <time>2013-03-14T14:39:57Z</time>
      </trkpt>
      <trkpt lat="43.21063" lon="5.47031">
        <ele>168</ele>
        <time>2013-03-14T14:40:06Z</time>
      </trkpt>
      <trkpt lat="43.21068" lon="5.4703">
        <ele>169</ele>
        <time>2013-03-14T14:40:11Z</time>
      </trkpt>
      <trkpt lat="43.21073" lon="5.47029">
        <ele>170</ele>
        <time>2013-03-14T14:40:18Z</time>
      </trkpt>
      <trkpt lat="43.21075" lon="5.47029">
        <ele>170</ele>
        <time>2013-03-14T14:40:24Z</time>
      </trkpt>
      <trkpt lat="43.21079" lon="5.47022">
        <ele>173</ele>
        <time>2013-03-14T14:40:44Z</time>
      </trkpt>
      <trkpt lat="43.21083" lon="5.47025">
        <ele>174</ele>
        <time>2013-03-14T14:40:52Z</time>
      </trkpt>
      <trkpt lat="43.21087" lon="5.47026">
        <ele>175</ele>
        <time>2013-03-14T14:41:03Z</time>
      </trkpt>
      <trkpt lat="43.21089" lon="5.47024">
        <ele>178</ele>
        <time>2013-03-14T14:41:09Z</time>
      </trkpt>
      <trkpt lat="43.2109" lon="5.47021">
        <ele>180</ele>
        <time>2013-03-14T14:41:15Z</time>
      </trkpt>
      <trkpt lat="43.21098" lon="5.47019">
        <ele>192</ele>
        <time>2013-03-14T14:42:30Z</time>
      </trkpt>
      <trkpt lat="43.21101" lon="5.47023">
        <ele>198</ele>
        <time>2013-03-14T14:42:38Z</time>
      </trkpt>
      <trkpt lat="43.21105" lon="5.47026">
        <ele>200</ele>
        <time>2013-03-14T14:42:48Z</time>
      </trkpt>
      <trkpt lat="43.21107" lon="5.47029">
        <ele>201</ele>
        <time>2013-03-14T14:42:59Z</time>
      </trkpt>
      <trkpt lat="43.21113" lon="5.4703">
        <ele>201</ele>
        <time>2013-03-14T14:43:20Z</time>
      </trkpt>
      <trkpt lat="43.21122" lon="5.47031">
        <ele>215</ele>
        <time>2013-03-14T14:47:11Z</time>
      </trkpt>
      <trkpt lat="43.21127" lon="5.47031">
        <ele>219</ele>
        <time>2013-03-14T14:47:28Z</time>
      </trkpt>
      <trkpt lat="43.21131" lon="5.47034">
        <ele>223</ele>
        <time>2013-03-14T14:47:40Z</time>
      </trkpt>
      <trkpt lat="43.21132" lon="5.47031">
        <ele>228</ele>
        <time>2013-03-14T14:47:51Z</time>
      </trkpt>
      <trkpt lat="43.21136" lon="5.47031">
        <ele>235</ele>
        <time>2013-03-14T14:48:15Z</time>
      </trkpt>
      <trkpt lat="43.21138" lon="5.47027">
        <ele>236</ele>
        <time>2013-03-14T14:48:27Z</time>
      </trkpt>
      <trkpt lat="43.21146" lon="5.47024">
        <ele>239</ele>
        <time>2013-03-14T14:49:16Z</time>
      </trkpt>
      <trkpt lat="43.21152" lon="5.47017">
        <ele>253</ele>
        <time>2013-03-14T14:50:08Z</time>
      </trkpt>
      <trkpt lat="43.21154" lon="5.47005">
        <ele>254</ele>
        <time>2013-03-14T14:50:22Z</time>
      </trkpt>
      <trkpt lat="43.21162" lon="5.47004">
        <ele>251</ele>
        <time>2013-03-14T14:50:41Z</time>
      </trkpt>
      <trkpt lat="43.21167" lon="5.47006">
        <ele>252</ele>
        <time>2013-03-14T14:51:08Z</time>
      </trkpt>
      <trkpt lat="43.21174" lon="5.4701">
        <ele>255</ele>
        <time>2013-03-14T14:52:00Z</time>
      </trkpt>
      <trkpt lat="43.21173" lon="5.47017">
        <ele>256</ele>
        <time>2013-03-14T14:52:13Z</time>
      </trkpt>
      <trkpt lat="43.22699" lon="5.43712">
        <ele>174</ele>
        <time>2013-03-14T16:24:20Z</time>
      </trkpt>
      <trkpt lat="43.22702" lon="5.4374">
        <ele>161</ele>
        <time>2013-03-14T16:24:24Z</time>
      </trkpt>
      <trkpt lat="43.22707" lon="5.43737">
        <ele>160</ele>
        <time>2013-03-14T16:24:29Z</time>
      </trkpt>
      <trkpt lat="43.22712" lon="5.43735">
        <ele>159</ele>
        <time>2013-03-14T16:24:33Z</time>
      </trkpt>
      <trkpt lat="43.22717" lon="5.43732">
        <ele>158</ele>
        <time>2013-03-14T16:24:37Z</time>
      </trkpt>
      <trkpt lat="43.22721" lon="5.4373">
        <ele>158</ele>
        <time>2013-03-14T16:24:41Z</time>
      </trkpt>
      <trkpt lat="43.22726" lon="5.43728">
        <ele>158</ele>
        <time>2013-03-14T16:24:46Z</time>
      </trkpt>
      <trkpt lat="43.22731" lon="5.43727">
        <ele>158</ele>
        <time>2013-03-14T16:24:51Z</time>
      </trkpt>
      <trkpt lat="43.22736" lon="5.43726">
        <ele>159</ele>
        <time>2013-03-14T16:24:54Z</time>
      </trkpt>
      <trkpt lat="43.2274" lon="5.43724">
        <ele>160</ele>
        <time>2013-03-14T16:24:56Z</time>
      </trkpt>
      <trkpt lat="43.22745" lon="5.43722">
        <ele>160</ele>
        <time>2013-03-14T16:25:00Z</time>
      </trkpt>
      <trkpt lat="43.2275" lon="5.43721">
        <ele>161</ele>
        <time>2013-03-14T16:25:03Z</time>
      </trkpt>
      <trkpt lat="43.22754" lon="5.43719">
        <ele>161</ele>
        <time>2013-03-14T16:25:07Z</time>
      </trkpt>
      <trkpt lat="43.22759" lon="5.43718">
        <ele>161</ele>
        <time>2013-03-14T16:25:11Z</time>
      </trkpt>
      <trkpt lat="43.22764" lon="5.43717">
        <ele>161</ele>
        <time>2013-03-14T16:25:14Z</time>
      </trkpt>
      <trkpt lat="43.2277" lon="5.43715">
        <ele>159</ele>
        <time>2013-03-14T16:25:19Z</time>
      </trkpt>
      <trkpt lat="43.22775" lon="5.43715">
        <ele>158</ele>
        <time>2013-03-14T16:25:23Z</time>
      </trkpt>
      <trkpt lat="43.2278" lon="5.43714">
        <ele>158</ele>
        <time>2013-03-14T16:25:28Z</time>
      </trkpt>
      <trkpt lat="43.22786" lon="5.43714">
        <ele>158</ele>
        <time>2013-03-14T16:25:32Z</time>
      </trkpt>
      <trkpt lat="43.22791" lon="5.43716">
        <ele>158</ele>
        <time>2013-03-14T16:25:37Z</time>
      </trkpt>
      <trkpt lat="43.22796" lon="5.43717">
        <ele>158</ele>
        <time>2013-03-14T16:25:41Z</time>
      </trkpt>
      <trkpt lat="43.22801" lon="5.43718">
        <ele>157</ele>
        <time>2013-03-14T16:25:45Z</time>
      </trkpt>
      <trkpt lat="43.22805" lon="5.43717">
        <ele>157</ele>
        <time>2013-03-14T16:25:50Z</time>
      </trkpt>
      <trkpt lat="43.22811" lon="5.43717">
        <ele>157</ele>
        <time>2013-03-14T16:25:54Z</time>
      </trkpt>
      <trkpt lat="43.22816" lon="5.43717">
        <ele>156</ele>
        <time>2013-03-14T16:25:58Z</time>
      </trkpt>
      <trkpt lat="43.22821" lon="5.43717">
        <ele>155</ele>
        <time>2013-03-14T16:26:02Z</time>
      </trkpt>
      <trkpt lat="43.22826" lon="5.43717">
        <ele>155</ele>
        <time>2013-03-14T16:26:06Z</time>
      </trkpt>
      <trkpt lat="43.22831" lon="5.43716">
        <ele>154</ele>
        <time>2013-03-14T16:26:10Z</time>
      </trkpt>
      <trkpt lat="43.22836" lon="5.43715">
        <ele>153</ele>
        <time>2013-03-14T16:26:14Z</time>
      </trkpt>
      <trkpt lat="43.22841" lon="5.43715">
        <ele>153</ele>
        <time>2013-03-14T16:26:18Z</time>
      </trkpt>
      <trkpt lat="43.22846" lon="5.43714">
        <ele>152</ele>
        <time>2013-03-14T16:26:22Z</time>
      </trkpt>
      <trkpt lat="43.2285" lon="5.43714">
        <ele>152</ele>
        <time>2013-03-14T16:26:25Z</time>
      </trkpt>
      <trkpt lat="43.22855" lon="5.43713">
        <ele>153</ele>
        <time>2013-03-14T16:26:27Z</time>
      </trkpt>
      <trkpt lat="43.2286" lon="5.43712">
        <ele>153</ele>
        <time>2013-03-14T16:26:29Z</time>
      </trkpt>
      <trkpt lat="43.22865" lon="5.43711">
        <ele>153</ele>
        <time>2013-03-14T16:26:33Z</time>
      </trkpt>
      <trkpt lat="43.2287" lon="5.43711">
        <ele>154</ele>
        <time>2013-03-14T16:26:36Z</time>
      </trkpt>
      <trkpt lat="43.22876" lon="5.43712">
        <ele>154</ele>
        <time>2013-03-14T16:26:43Z</time>
      </trkpt>
      <trkpt lat="43.22881" lon="5.43711">
        <ele>154</ele>
        <time>2013-03-14T16:26:47Z</time>
      </trkpt>
      <trkpt lat="43.22886" lon="5.4371">
        <ele>154</ele>
        <time>2013-03-14T16:26:51Z</time>
      </trkpt>
      <trkpt lat="43.22891" lon="5.43707">
        <ele>155</ele>
        <time>2013-03-14T16:26:55Z</time>
      </trkpt>
      <trkpt lat="43.22896" lon="5.43707">
        <ele>154</ele>
        <time>2013-03-14T16:26:59Z</time>
      </trkpt>
      <trkpt lat="43.22901" lon="5.43707">
        <ele>153</ele>
        <time>2013-03-14T16:27:02Z</time>
      </trkpt>
      <trkpt lat="43.22907" lon="5.43708">
        <ele>153</ele>
        <time>2013-03-14T16:27:05Z</time>
      </trkpt>
    </trkseg>
  </trk>
</gpx>